<?xml version="1.0" encoding="UTF-8" standalone="no" ?>
<gpx xmlns="http://www.topografix.com/GPX/1/1" xmlns:xsi="http://www.w3.org/2001/XMLSchema-instance" xsi:schemaLocation="http://www.topografix.com/GPX/1/1 http://www.topografix.com/GPX/1/1/gpx.xsd" version="1.1" creator="VisuGPX - https://www.visugpx.com">
  <metadata>
    <name>Lainville-Follainville-Dennemont</name>
    <desc><![CDATA[FAIT]]></desc>
  </metadata>
  <trk>
    <name><![CDATA[Lainville-Follainville-Dennemont-14172201]]></name>
    <trkseg>
      <trkpt lat="49.06209" lon="1.81494">
        <ele>155</ele>
        <time>2023-01-10T07:49:56Z</time>
      </trkpt>
      <trkpt lat="49.06217" lon="1.81496">
        <ele>155</ele>
        <time>2023-01-10T07:50:07Z</time>
      </trkpt>
      <trkpt lat="49.06213" lon="1.81494">
        <ele>155</ele>
        <time>2023-01-10T07:50:12Z</time>
      </trkpt>
      <trkpt lat="49.06213" lon="1.81479">
        <ele>155</ele>
        <time>2023-01-10T07:50:26Z</time>
      </trkpt>
      <trkpt lat="49.06206" lon="1.81476">
        <ele>155</ele>
        <time>2023-01-10T07:50:35Z</time>
      </trkpt>
      <trkpt lat="49.06204" lon="1.81481">
        <ele>155</ele>
        <time>2023-01-10T07:50:40Z</time>
      </trkpt>
      <trkpt lat="49.06208" lon="1.81485">
        <ele>155</ele>
        <time>2023-01-10T07:50:47Z</time>
      </trkpt>
      <trkpt lat="49.06213" lon="1.81463">
        <ele>155</ele>
        <time>2023-01-10T07:51:07Z</time>
      </trkpt>
      <trkpt lat="49.06218" lon="1.81473">
        <ele>155</ele>
        <time>2023-01-10T07:51:18Z</time>
      </trkpt>
      <trkpt lat="49.06203" lon="1.81481">
        <ele>155</ele>
        <time>2023-01-10T07:51:39Z</time>
      </trkpt>
      <trkpt lat="49.06206" lon="1.81479">
        <ele>155</ele>
        <time>2023-01-10T07:51:44Z</time>
      </trkpt>
      <trkpt lat="49.06219" lon="1.81504">
        <ele>155</ele>
        <time>2023-01-10T07:52:12Z</time>
      </trkpt>
      <trkpt lat="49.0621" lon="1.81488">
        <ele>155</ele>
        <time>2023-01-10T07:52:30Z</time>
      </trkpt>
      <trkpt lat="49.06211" lon="1.81495">
        <ele>155</ele>
        <time>2023-01-10T07:52:36Z</time>
      </trkpt>
      <trkpt lat="49.06215" lon="1.81495">
        <ele>155</ele>
        <time>2023-01-10T07:52:42Z</time>
      </trkpt>
      <trkpt lat="49.06212" lon="1.81506">
        <ele>155</ele>
        <time>2023-01-10T07:52:52Z</time>
      </trkpt>
      <trkpt lat="49.06207" lon="1.81504">
        <ele>155</ele>
        <time>2023-01-10T07:52:59Z</time>
      </trkpt>
      <trkpt lat="49.06207" lon="1.8151">
        <ele>155</ele>
        <time>2023-01-10T07:53:04Z</time>
      </trkpt>
      <trkpt lat="49.06207" lon="1.81502">
        <ele>155</ele>
        <time>2023-01-10T07:53:11Z</time>
      </trkpt>
      <trkpt lat="49.0621" lon="1.81503">
        <ele>155</ele>
        <time>2023-01-10T07:53:15Z</time>
      </trkpt>
      <trkpt lat="49.06208" lon="1.81505">
        <ele>155</ele>
        <time>2023-01-10T07:53:18Z</time>
      </trkpt>
      <trkpt lat="49.06206" lon="1.81494">
        <ele>156</ele>
        <time>2023-01-10T07:53:28Z</time>
      </trkpt>
      <trkpt lat="49.06189" lon="1.81499">
        <ele>156</ele>
        <time>2023-01-10T07:53:52Z</time>
      </trkpt>
      <trkpt lat="49.06184" lon="1.81484">
        <ele>156</ele>
        <time>2023-01-10T07:54:06Z</time>
      </trkpt>
      <trkpt lat="49.06129" lon="1.81453">
        <ele>153</ele>
        <time>2023-01-10T07:55:25Z</time>
      </trkpt>
      <trkpt lat="49.06101" lon="1.81442">
        <ele>151</ele>
        <time>2023-01-10T07:56:03Z</time>
      </trkpt>
      <trkpt lat="49.06068" lon="1.81406">
        <ele>146</ele>
        <time>2023-01-10T07:56:57Z</time>
      </trkpt>
      <trkpt lat="49.06044" lon="1.81394">
        <ele>144</ele>
        <time>2023-01-10T07:57:31Z</time>
      </trkpt>
      <trkpt lat="49.06012" lon="1.81388">
        <ele>143</ele>
        <time>2023-01-10T07:58:14Z</time>
      </trkpt>
      <trkpt lat="49.05984" lon="1.81397">
        <ele>142</ele>
        <time>2023-01-10T07:58:52Z</time>
      </trkpt>
      <trkpt lat="49.05974" lon="1.81395">
        <ele>142</ele>
        <time>2023-01-10T07:59:06Z</time>
      </trkpt>
      <trkpt lat="49.05927" lon="1.81415">
        <ele>140</ele>
        <time>2023-01-10T08:00:11Z</time>
      </trkpt>
      <trkpt lat="49.05922" lon="1.81412">
        <ele>140</ele>
        <time>2023-01-10T08:00:18Z</time>
      </trkpt>
      <trkpt lat="49.05914" lon="1.8135">
        <ele>137</ele>
        <time>2023-01-10T08:01:13Z</time>
      </trkpt>
      <trkpt lat="49.05925" lon="1.81316">
        <ele>135</ele>
        <time>2023-01-10T08:01:46Z</time>
      </trkpt>
      <trkpt lat="49.05954" lon="1.81175">
        <ele>128</ele>
        <time>2023-01-10T08:03:56Z</time>
      </trkpt>
      <trkpt lat="49.05965" lon="1.8111">
        <ele>127</ele>
        <time>2023-01-10T08:04:54Z</time>
      </trkpt>
      <trkpt lat="49.05968" lon="1.81054">
        <ele>127</ele>
        <time>2023-01-10T08:05:43Z</time>
      </trkpt>
      <trkpt lat="49.05949" lon="1.80957">
        <ele>133</ele>
        <time>2023-01-10T08:07:12Z</time>
      </trkpt>
      <trkpt lat="49.0594" lon="1.80938">
        <ele>134</ele>
        <time>2023-01-10T08:07:32Z</time>
      </trkpt>
      <trkpt lat="49.05934" lon="1.80831">
        <ele>148</ele>
        <time>2023-01-10T08:09:06Z</time>
      </trkpt>
      <trkpt lat="49.05927" lon="1.80786">
        <ele>153</ele>
        <time>2023-01-10T08:09:47Z</time>
      </trkpt>
      <trkpt lat="49.05933" lon="1.80752">
        <ele>157</ele>
        <time>2023-01-10T08:10:18Z</time>
      </trkpt>
      <trkpt lat="49.0593" lon="1.80706">
        <ele>158</ele>
        <time>2023-01-10T08:10:58Z</time>
      </trkpt>
      <trkpt lat="49.05913" lon="1.80638">
        <ele>159</ele>
        <time>2023-01-10T08:12:02Z</time>
      </trkpt>
      <trkpt lat="49.05896" lon="1.80513">
        <ele>164</ele>
        <time>2023-01-10T08:13:53Z</time>
      </trkpt>
      <trkpt lat="49.05893" lon="1.80481">
        <ele>167</ele>
        <time>2023-01-10T08:14:22Z</time>
      </trkpt>
      <trkpt lat="49.0591" lon="1.80396">
        <ele>175</ele>
        <time>2023-01-10T08:15:39Z</time>
      </trkpt>
      <trkpt lat="49.05896" lon="1.80293">
        <ele>183</ele>
        <time>2023-01-10T08:17:11Z</time>
      </trkpt>
      <trkpt lat="49.05901" lon="1.80245">
        <ele>185</ele>
        <time>2023-01-10T08:17:54Z</time>
      </trkpt>
      <trkpt lat="49.05909" lon="1.80216">
        <ele>185</ele>
        <time>2023-01-10T08:18:21Z</time>
      </trkpt>
      <trkpt lat="49.05913" lon="1.80208">
        <ele>185</ele>
        <time>2023-01-10T08:18:30Z</time>
      </trkpt>
      <trkpt lat="49.05927" lon="1.80202">
        <ele>186</ele>
        <time>2023-01-10T08:18:49Z</time>
      </trkpt>
      <trkpt lat="49.05931" lon="1.80195">
        <ele>186</ele>
        <time>2023-01-10T08:18:58Z</time>
      </trkpt>
      <trkpt lat="49.05975" lon="1.80089">
        <ele>188</ele>
        <time>2023-01-10T08:20:47Z</time>
      </trkpt>
      <trkpt lat="49.05978" lon="1.8007">
        <ele>187</ele>
        <time>2023-01-10T08:21:04Z</time>
      </trkpt>
      <trkpt lat="49.05988" lon="1.80045">
        <ele>187</ele>
        <time>2023-01-10T08:21:30Z</time>
      </trkpt>
      <trkpt lat="49.06032" lon="1.80003">
        <ele>187</ele>
        <time>2023-01-10T08:22:39Z</time>
      </trkpt>
      <trkpt lat="49.06081" lon="1.79938">
        <ele>184</ele>
        <time>2023-01-10T08:24:06Z</time>
      </trkpt>
      <trkpt lat="49.061" lon="1.79926">
        <ele>183</ele>
        <time>2023-01-10T08:24:33Z</time>
      </trkpt>
      <trkpt lat="49.06118" lon="1.79905">
        <ele>182</ele>
        <time>2023-01-10T08:25:04Z</time>
      </trkpt>
      <trkpt lat="49.06129" lon="1.79899">
        <ele>182</ele>
        <time>2023-01-10T08:25:19Z</time>
      </trkpt>
      <trkpt lat="49.06148" lon="1.79864">
        <ele>181</ele>
        <time>2023-01-10T08:25:59Z</time>
      </trkpt>
      <trkpt lat="49.06161" lon="1.79861">
        <ele>181</ele>
        <time>2023-01-10T08:26:16Z</time>
      </trkpt>
      <trkpt lat="49.06175" lon="1.79844">
        <ele>181</ele>
        <time>2023-01-10T08:26:40Z</time>
      </trkpt>
      <trkpt lat="49.06206" lon="1.79781">
        <ele>180</ele>
        <time>2023-01-10T08:27:49Z</time>
      </trkpt>
      <trkpt lat="49.06214" lon="1.79746">
        <ele>179</ele>
        <time>2023-01-10T08:28:22Z</time>
      </trkpt>
      <trkpt lat="49.06222" lon="1.7973">
        <ele>180</ele>
        <time>2023-01-10T08:28:39Z</time>
      </trkpt>
      <trkpt lat="49.06237" lon="1.79722">
        <ele>181</ele>
        <time>2023-01-10T08:29:00Z</time>
      </trkpt>
      <trkpt lat="49.06243" lon="1.79722">
        <ele>182</ele>
        <time>2023-01-10T08:29:08Z</time>
      </trkpt>
      <trkpt lat="49.06245" lon="1.79729">
        <ele>182</ele>
        <time>2023-01-10T08:29:15Z</time>
      </trkpt>
      <trkpt lat="49.06279" lon="1.7969">
        <ele>183</ele>
        <time>2023-01-10T08:30:12Z</time>
      </trkpt>
      <trkpt lat="49.0629" lon="1.79666">
        <ele>182</ele>
        <time>2023-01-10T08:30:37Z</time>
      </trkpt>
      <trkpt lat="49.06311" lon="1.79637">
        <ele>180</ele>
        <time>2023-01-10T08:31:15Z</time>
      </trkpt>
      <trkpt lat="49.06326" lon="1.79597">
        <ele>178</ele>
        <time>2023-01-10T08:31:56Z</time>
      </trkpt>
      <trkpt lat="49.06335" lon="1.79542">
        <ele>178</ele>
        <time>2023-01-10T08:32:45Z</time>
      </trkpt>
      <trkpt lat="49.06376" lon="1.79438">
        <ele>173</ele>
        <time>2023-01-10T08:34:31Z</time>
      </trkpt>
      <trkpt lat="49.06384" lon="1.79427">
        <ele>172</ele>
        <time>2023-01-10T08:34:46Z</time>
      </trkpt>
      <trkpt lat="49.06401" lon="1.79416">
        <ele>171</ele>
        <time>2023-01-10T08:35:10Z</time>
      </trkpt>
      <trkpt lat="49.06426" lon="1.7941">
        <ele>170</ele>
        <time>2023-01-10T08:35:44Z</time>
      </trkpt>
      <trkpt lat="49.06444" lon="1.79409">
        <ele>168</ele>
        <time>2023-01-10T08:36:08Z</time>
      </trkpt>
      <trkpt lat="49.06472" lon="1.79418">
        <ele>166</ele>
        <time>2023-01-10T08:36:46Z</time>
      </trkpt>
      <trkpt lat="49.06498" lon="1.79419">
        <ele>164</ele>
        <time>2023-01-10T08:37:21Z</time>
      </trkpt>
      <trkpt lat="49.06526" lon="1.79409">
        <ele>164</ele>
        <time>2023-01-10T08:37:59Z</time>
      </trkpt>
      <trkpt lat="49.06565" lon="1.79381">
        <ele>161</ele>
        <time>2023-01-10T08:38:57Z</time>
      </trkpt>
      <trkpt lat="49.06575" lon="1.79363">
        <ele>159</ele>
        <time>2023-01-10T08:39:17Z</time>
      </trkpt>
      <trkpt lat="49.06582" lon="1.79334">
        <ele>156</ele>
        <time>2023-01-10T08:39:44Z</time>
      </trkpt>
      <trkpt lat="49.06618" lon="1.7924">
        <ele>155</ele>
        <time>2023-01-10T08:41:20Z</time>
      </trkpt>
      <trkpt lat="49.06599" lon="1.79083">
        <ele>145</ele>
        <time>2023-01-10T08:43:39Z</time>
      </trkpt>
      <trkpt lat="49.06586" lon="1.79053">
        <ele>142</ele>
        <time>2023-01-10T08:44:11Z</time>
      </trkpt>
      <trkpt lat="49.06569" lon="1.79033">
        <ele>140</ele>
        <time>2023-01-10T08:44:39Z</time>
      </trkpt>
      <trkpt lat="49.06557" lon="1.79004">
        <ele>137</ele>
        <time>2023-01-10T08:45:09Z</time>
      </trkpt>
      <trkpt lat="49.06552" lon="1.78968">
        <ele>135</ele>
        <time>2023-01-10T08:45:42Z</time>
      </trkpt>
      <trkpt lat="49.0655" lon="1.78895">
        <ele>132</ele>
        <time>2023-01-10T08:46:45Z</time>
      </trkpt>
      <trkpt lat="49.06544" lon="1.78858">
        <ele>132</ele>
        <time>2023-01-10T08:47:19Z</time>
      </trkpt>
      <trkpt lat="49.06504" lon="1.78676">
        <ele>122</ele>
        <time>2023-01-10T08:50:07Z</time>
      </trkpt>
      <trkpt lat="49.06467" lon="1.78551">
        <ele>120</ele>
        <time>2023-01-10T08:52:07Z</time>
      </trkpt>
      <trkpt lat="49.06432" lon="1.78363">
        <ele>132</ele>
        <time>2023-01-10T08:54:57Z</time>
      </trkpt>
      <trkpt lat="49.06396" lon="1.7824">
        <ele>140</ele>
        <time>2023-01-10T08:56:55Z</time>
      </trkpt>
      <trkpt lat="49.06363" lon="1.78154">
        <ele>141</ele>
        <time>2023-01-10T08:58:22Z</time>
      </trkpt>
      <trkpt lat="49.06268" lon="1.77935">
        <ele>140</ele>
        <time>2023-01-10T09:02:12Z</time>
      </trkpt>
      <trkpt lat="49.06219" lon="1.77835">
        <ele>139</ele>
        <time>2023-01-10T09:04:01Z</time>
      </trkpt>
      <trkpt lat="49.0621" lon="1.77836">
        <ele>139</ele>
        <time>2023-01-10T09:04:13Z</time>
      </trkpt>
      <trkpt lat="49.06187" lon="1.77852">
        <ele>138</ele>
        <time>2023-01-10T09:04:47Z</time>
      </trkpt>
      <trkpt lat="49.06164" lon="1.77862">
        <ele>137</ele>
        <time>2023-01-10T09:05:19Z</time>
      </trkpt>
      <trkpt lat="49.06127" lon="1.77871">
        <ele>136</ele>
        <time>2023-01-10T09:06:09Z</time>
      </trkpt>
      <trkpt lat="49.06088" lon="1.77886">
        <ele>136</ele>
        <time>2023-01-10T09:07:03Z</time>
      </trkpt>
      <trkpt lat="49.06045" lon="1.77909">
        <ele>135</ele>
        <time>2023-01-10T09:08:03Z</time>
      </trkpt>
      <trkpt lat="49.06017" lon="1.77919">
        <ele>135</ele>
        <time>2023-01-10T09:08:42Z</time>
      </trkpt>
      <trkpt lat="49.05999" lon="1.77921">
        <ele>135</ele>
        <time>2023-01-10T09:09:06Z</time>
      </trkpt>
      <trkpt lat="49.05845" lon="1.78007">
        <ele>129</ele>
        <time>2023-01-10T09:12:45Z</time>
      </trkpt>
      <trkpt lat="49.05765" lon="1.77975">
        <ele>126</ele>
        <time>2023-01-10T09:14:35Z</time>
      </trkpt>
      <trkpt lat="49.05703" lon="1.77977">
        <ele>127</ele>
        <time>2023-01-10T09:15:58Z</time>
      </trkpt>
      <trkpt lat="49.05676" lon="1.77973">
        <ele>129</ele>
        <time>2023-01-10T09:16:34Z</time>
      </trkpt>
      <trkpt lat="49.05651" lon="1.77961">
        <ele>130</ele>
        <time>2023-01-10T09:17:09Z</time>
      </trkpt>
      <trkpt lat="49.05614" lon="1.77959">
        <ele>132</ele>
        <time>2023-01-10T09:17:58Z</time>
      </trkpt>
      <trkpt lat="49.05602" lon="1.77953">
        <ele>133</ele>
        <time>2023-01-10T09:18:15Z</time>
      </trkpt>
      <trkpt lat="49.05549" lon="1.77901">
        <ele>140</ele>
        <time>2023-01-10T09:19:39Z</time>
      </trkpt>
      <trkpt lat="49.05514" lon="1.77859">
        <ele>142</ele>
        <time>2023-01-10T09:20:39Z</time>
      </trkpt>
      <trkpt lat="49.05466" lon="1.77814">
        <ele>142</ele>
        <time>2023-01-10T09:21:54Z</time>
      </trkpt>
      <trkpt lat="49.05451" lon="1.77795">
        <ele>142</ele>
        <time>2023-01-10T09:22:20Z</time>
      </trkpt>
      <trkpt lat="49.05446" lon="1.77778">
        <ele>141</ele>
        <time>2023-01-10T09:22:36Z</time>
      </trkpt>
      <trkpt lat="49.05472" lon="1.77702">
        <ele>142</ele>
        <time>2023-01-10T09:23:51Z</time>
      </trkpt>
      <trkpt lat="49.05471" lon="1.77688">
        <ele>142</ele>
        <time>2023-01-10T09:24:03Z</time>
      </trkpt>
      <trkpt lat="49.05414" lon="1.77632">
        <ele>142</ele>
        <time>2023-01-10T09:25:34Z</time>
      </trkpt>
      <trkpt lat="49.05385" lon="1.77591">
        <ele>141</ele>
        <time>2023-01-10T09:26:27Z</time>
      </trkpt>
      <trkpt lat="49.05236" lon="1.77422">
        <ele>139</ele>
        <time>2023-01-10T09:30:34Z</time>
      </trkpt>
      <trkpt lat="49.05227" lon="1.77377">
        <ele>139</ele>
        <time>2023-01-10T09:31:16Z</time>
      </trkpt>
      <trkpt lat="49.05193" lon="1.77271">
        <ele>138</ele>
        <time>2023-01-10T09:32:59Z</time>
      </trkpt>
      <trkpt lat="49.05183" lon="1.7721">
        <ele>138</ele>
        <time>2023-01-10T09:33:54Z</time>
      </trkpt>
      <trkpt lat="49.05137" lon="1.77046">
        <ele>138</ele>
        <time>2023-01-10T09:36:30Z</time>
      </trkpt>
      <trkpt lat="49.05118" lon="1.76945">
        <ele>137</ele>
        <time>2023-01-10T09:38:02Z</time>
      </trkpt>
      <trkpt lat="49.05096" lon="1.76898">
        <ele>135</ele>
        <time>2023-01-10T09:38:52Z</time>
      </trkpt>
      <trkpt lat="49.05083" lon="1.76846">
        <ele>134</ele>
        <time>2023-01-10T09:39:41Z</time>
      </trkpt>
      <trkpt lat="49.05064" lon="1.76796">
        <ele>134</ele>
        <time>2023-01-10T09:40:31Z</time>
      </trkpt>
      <trkpt lat="49.05041" lon="1.76688">
        <ele>135</ele>
        <time>2023-01-10T09:42:11Z</time>
      </trkpt>
      <trkpt lat="49.05028" lon="1.76651">
        <ele>135</ele>
        <time>2023-01-10T09:42:47Z</time>
      </trkpt>
      <trkpt lat="49.04995" lon="1.76516">
        <ele>138</ele>
        <time>2023-01-10T09:44:53Z</time>
      </trkpt>
      <trkpt lat="49.0498" lon="1.76476">
        <ele>138</ele>
        <time>2023-01-10T09:45:34Z</time>
      </trkpt>
      <trkpt lat="49.04952" lon="1.7646">
        <ele>138</ele>
        <time>2023-01-10T09:46:14Z</time>
      </trkpt>
      <trkpt lat="49.04923" lon="1.76451">
        <ele>138</ele>
        <time>2023-01-10T09:46:53Z</time>
      </trkpt>
      <trkpt lat="49.04896" lon="1.76434">
        <ele>138</ele>
        <time>2023-01-10T09:47:32Z</time>
      </trkpt>
      <trkpt lat="49.04846" lon="1.7642">
        <ele>139</ele>
        <time>2023-01-10T09:48:40Z</time>
      </trkpt>
      <trkpt lat="49.04751" lon="1.76372">
        <ele>142</ele>
        <time>2023-01-10T09:50:54Z</time>
      </trkpt>
      <trkpt lat="49.0473" lon="1.76364">
        <ele>142</ele>
        <time>2023-01-10T09:51:22Z</time>
      </trkpt>
      <trkpt lat="49.04681" lon="1.76354">
        <ele>143</ele>
        <time>2023-01-10T09:52:28Z</time>
      </trkpt>
      <trkpt lat="49.0465" lon="1.76337">
        <ele>144</ele>
        <time>2023-01-10T09:53:12Z</time>
      </trkpt>
      <trkpt lat="49.04568" lon="1.76304">
        <ele>145</ele>
        <time>2023-01-10T09:55:06Z</time>
      </trkpt>
      <trkpt lat="49.04524" lon="1.76294">
        <ele>146</ele>
        <time>2023-01-10T09:56:05Z</time>
      </trkpt>
      <trkpt lat="49.04454" lon="1.76269">
        <ele>148</ele>
        <time>2023-01-10T09:57:41Z</time>
      </trkpt>
      <trkpt lat="49.044" lon="1.76262">
        <ele>151</ele>
        <time>2023-01-10T09:58:53Z</time>
      </trkpt>
      <trkpt lat="49.0438" lon="1.76267">
        <ele>152</ele>
        <time>2023-01-10T09:59:20Z</time>
      </trkpt>
      <trkpt lat="49.04346" lon="1.76264">
        <ele>155</ele>
        <time>2023-01-10T10:00:06Z</time>
      </trkpt>
      <trkpt lat="49.04324" lon="1.7627">
        <ele>156</ele>
        <time>2023-01-10T10:00:35Z</time>
      </trkpt>
      <trkpt lat="49.04306" lon="1.76266">
        <ele>158</ele>
        <time>2023-01-10T10:01:00Z</time>
      </trkpt>
      <trkpt lat="49.04279" lon="1.76275">
        <ele>160</ele>
        <time>2023-01-10T10:01:37Z</time>
      </trkpt>
      <trkpt lat="49.04265" lon="1.76272">
        <ele>161</ele>
        <time>2023-01-10T10:01:55Z</time>
      </trkpt>
      <trkpt lat="49.04232" lon="1.76275">
        <ele>163</ele>
        <time>2023-01-10T10:02:40Z</time>
      </trkpt>
      <trkpt lat="49.04218" lon="1.76283">
        <ele>163</ele>
        <time>2023-01-10T10:03:00Z</time>
      </trkpt>
      <trkpt lat="49.04194" lon="1.76271">
        <ele>165</ele>
        <time>2023-01-10T10:03:33Z</time>
      </trkpt>
      <trkpt lat="49.04155" lon="1.76273">
        <ele>167</ele>
        <time>2023-01-10T10:04:25Z</time>
      </trkpt>
      <trkpt lat="49.04132" lon="1.7627">
        <ele>169</ele>
        <time>2023-01-10T10:04:56Z</time>
      </trkpt>
      <trkpt lat="49.04112" lon="1.76279">
        <ele>169</ele>
        <time>2023-01-10T10:05:24Z</time>
      </trkpt>
      <trkpt lat="49.04077" lon="1.76273">
        <ele>171</ele>
        <time>2023-01-10T10:06:11Z</time>
      </trkpt>
      <trkpt lat="49.04071" lon="1.76275">
        <ele>172</ele>
        <time>2023-01-10T10:06:19Z</time>
      </trkpt>
      <trkpt lat="49.04048" lon="1.76266">
        <ele>174</ele>
        <time>2023-01-10T10:06:51Z</time>
      </trkpt>
      <trkpt lat="49.04024" lon="1.76271">
        <ele>175</ele>
        <time>2023-01-10T10:07:23Z</time>
      </trkpt>
      <trkpt lat="49.04016" lon="1.76264">
        <ele>176</ele>
        <time>2023-01-10T10:07:35Z</time>
      </trkpt>
      <trkpt lat="49.04006" lon="1.76264">
        <ele>176</ele>
        <time>2023-01-10T10:07:49Z</time>
      </trkpt>
      <trkpt lat="49.03957" lon="1.76248">
        <ele>179</ele>
        <time>2023-01-10T10:08:56Z</time>
      </trkpt>
      <trkpt lat="49.03914" lon="1.76223">
        <ele>180</ele>
        <time>2023-01-10T10:09:57Z</time>
      </trkpt>
      <trkpt lat="49.03903" lon="1.76207">
        <ele>180</ele>
        <time>2023-01-10T10:10:17Z</time>
      </trkpt>
      <trkpt lat="49.0387" lon="1.76182">
        <ele>178</ele>
        <time>2023-01-10T10:11:07Z</time>
      </trkpt>
      <trkpt lat="49.03865" lon="1.76173">
        <ele>178</ele>
        <time>2023-01-10T10:11:17Z</time>
      </trkpt>
      <trkpt lat="49.03819" lon="1.76141">
        <ele>175</ele>
        <time>2023-01-10T10:12:24Z</time>
      </trkpt>
      <trkpt lat="49.0381" lon="1.7613">
        <ele>174</ele>
        <time>2023-01-10T10:12:40Z</time>
      </trkpt>
      <trkpt lat="49.03782" lon="1.76117">
        <ele>172</ele>
        <time>2023-01-10T10:13:19Z</time>
      </trkpt>
      <trkpt lat="49.03756" lon="1.76094">
        <ele>170</ele>
        <time>2023-01-10T10:13:59Z</time>
      </trkpt>
      <trkpt lat="49.03731" lon="1.76093">
        <ele>169</ele>
        <time>2023-01-10T10:14:32Z</time>
      </trkpt>
      <trkpt lat="49.03714" lon="1.76082">
        <ele>169</ele>
        <time>2023-01-10T10:14:57Z</time>
      </trkpt>
      <trkpt lat="49.03692" lon="1.76085">
        <ele>168</ele>
        <time>2023-01-10T10:15:26Z</time>
      </trkpt>
      <trkpt lat="49.03673" lon="1.76076">
        <ele>167</ele>
        <time>2023-01-10T10:15:53Z</time>
      </trkpt>
      <trkpt lat="49.03664" lon="1.76076">
        <ele>167</ele>
        <time>2023-01-10T10:16:05Z</time>
      </trkpt>
      <trkpt lat="49.03657" lon="1.76065">
        <ele>167</ele>
        <time>2023-01-10T10:16:18Z</time>
      </trkpt>
      <trkpt lat="49.03643" lon="1.76075">
        <ele>166</ele>
        <time>2023-01-10T10:16:39Z</time>
      </trkpt>
      <trkpt lat="49.03627" lon="1.76063">
        <ele>165</ele>
        <time>2023-01-10T10:17:03Z</time>
      </trkpt>
      <trkpt lat="49.03619" lon="1.76067">
        <ele>164</ele>
        <time>2023-01-10T10:17:14Z</time>
      </trkpt>
      <trkpt lat="49.03591" lon="1.76066">
        <ele>163</ele>
        <time>2023-01-10T10:17:51Z</time>
      </trkpt>
      <trkpt lat="49.03571" lon="1.76057">
        <ele>161</ele>
        <time>2023-01-10T10:18:19Z</time>
      </trkpt>
      <trkpt lat="49.03543" lon="1.76061">
        <ele>159</ele>
        <time>2023-01-10T10:18:57Z</time>
      </trkpt>
      <trkpt lat="49.03505" lon="1.76051">
        <ele>155</ele>
        <time>2023-01-10T10:19:48Z</time>
      </trkpt>
      <trkpt lat="49.03494" lon="1.76053">
        <ele>154</ele>
        <time>2023-01-10T10:20:03Z</time>
      </trkpt>
      <trkpt lat="49.03452" lon="1.76047">
        <ele>149</ele>
        <time>2023-01-10T10:20:59Z</time>
      </trkpt>
      <trkpt lat="49.03379" lon="1.7602">
        <ele>144</ele>
        <time>2023-01-10T10:22:40Z</time>
      </trkpt>
      <trkpt lat="49.03332" lon="1.75995">
        <ele>141</ele>
        <time>2023-01-10T10:23:46Z</time>
      </trkpt>
      <trkpt lat="49.03328" lon="1.75984">
        <ele>140</ele>
        <time>2023-01-10T10:23:57Z</time>
      </trkpt>
      <trkpt lat="49.03291" lon="1.75947">
        <ele>137</ele>
        <time>2023-01-10T10:24:56Z</time>
      </trkpt>
      <trkpt lat="49.03226" lon="1.75904">
        <ele>133</ele>
        <time>2023-01-10T10:26:31Z</time>
      </trkpt>
      <trkpt lat="49.03216" lon="1.75892">
        <ele>133</ele>
        <time>2023-01-10T10:26:48Z</time>
      </trkpt>
      <trkpt lat="49.03174" lon="1.75875">
        <ele>132</ele>
        <time>2023-01-10T10:27:45Z</time>
      </trkpt>
      <trkpt lat="49.03157" lon="1.75864">
        <ele>131</ele>
        <time>2023-01-10T10:28:10Z</time>
      </trkpt>
      <trkpt lat="49.03138" lon="1.75864">
        <ele>130</ele>
        <time>2023-01-10T10:28:35Z</time>
      </trkpt>
      <trkpt lat="49.03129" lon="1.7586">
        <ele>130</ele>
        <time>2023-01-10T10:28:48Z</time>
      </trkpt>
      <trkpt lat="49.03109" lon="1.75803">
        <ele>129</ele>
        <time>2023-01-10T10:29:45Z</time>
      </trkpt>
      <trkpt lat="49.03055" lon="1.75731">
        <ele>126</ele>
        <time>2023-01-10T10:31:20Z</time>
      </trkpt>
      <trkpt lat="49.03023" lon="1.75674">
        <ele>124</ele>
        <time>2023-01-10T10:32:26Z</time>
      </trkpt>
      <trkpt lat="49.02998" lon="1.75641">
        <ele>123</ele>
        <time>2023-01-10T10:33:10Z</time>
      </trkpt>
      <trkpt lat="49.0298" lon="1.75626">
        <ele>122</ele>
        <time>2023-01-10T10:33:37Z</time>
      </trkpt>
      <trkpt lat="49.02974" lon="1.75613">
        <ele>122</ele>
        <time>2023-01-10T10:33:51Z</time>
      </trkpt>
      <trkpt lat="49.02928" lon="1.75553">
        <ele>119</ele>
        <time>2023-01-10T10:35:12Z</time>
      </trkpt>
      <trkpt lat="49.0289" lon="1.75512">
        <ele>118</ele>
        <time>2023-01-10T10:36:14Z</time>
      </trkpt>
      <trkpt lat="49.02849" lon="1.75453">
        <ele>117</ele>
        <time>2023-01-10T10:37:29Z</time>
      </trkpt>
      <trkpt lat="49.02822" lon="1.75384">
        <ele>116</ele>
        <time>2023-01-10T10:38:40Z</time>
      </trkpt>
      <trkpt lat="49.02795" lon="1.75339">
        <ele>114</ele>
        <time>2023-01-10T10:39:33Z</time>
      </trkpt>
      <trkpt lat="49.02772" lon="1.7529">
        <ele>114</ele>
        <time>2023-01-10T10:40:26Z</time>
      </trkpt>
      <trkpt lat="49.02761" lon="1.75277">
        <ele>113</ele>
        <time>2023-01-10T10:40:44Z</time>
      </trkpt>
      <trkpt lat="49.02715" lon="1.75191">
        <ele>111</ele>
        <time>2023-01-10T10:42:22Z</time>
      </trkpt>
      <trkpt lat="49.0271" lon="1.75185">
        <ele>111</ele>
        <time>2023-01-10T10:42:30Z</time>
      </trkpt>
      <trkpt lat="49.02695" lon="1.75179">
        <ele>109</ele>
        <time>2023-01-10T10:42:51Z</time>
      </trkpt>
      <trkpt lat="49.02689" lon="1.75168">
        <ele>109</ele>
        <time>2023-01-10T10:43:03Z</time>
      </trkpt>
      <trkpt lat="49.02685" lon="1.75148">
        <ele>109</ele>
        <time>2023-01-10T10:43:22Z</time>
      </trkpt>
      <trkpt lat="49.02687" lon="1.75126">
        <ele>110</ele>
        <time>2023-01-10T10:43:41Z</time>
      </trkpt>
      <trkpt lat="49.02696" lon="1.75103">
        <ele>111</ele>
        <time>2023-01-10T10:44:04Z</time>
      </trkpt>
      <trkpt lat="49.02705" lon="1.75097">
        <ele>112</ele>
        <time>2023-01-10T10:44:18Z</time>
      </trkpt>
      <trkpt lat="49.02695" lon="1.7509">
        <ele>111</ele>
        <time>2023-01-10T10:44:32Z</time>
      </trkpt>
      <trkpt lat="49.02708" lon="1.75076">
        <ele>112</ele>
        <time>2023-01-10T10:44:53Z</time>
      </trkpt>
      <trkpt lat="49.02715" lon="1.75079">
        <ele>113</ele>
        <time>2023-01-10T10:45:03Z</time>
      </trkpt>
      <trkpt lat="49.02719" lon="1.75087">
        <ele>113</ele>
        <time>2023-01-10T10:45:12Z</time>
      </trkpt>
      <trkpt lat="49.02728" lon="1.75042">
        <ele>115</ele>
        <time>2023-01-10T10:45:53Z</time>
      </trkpt>
      <trkpt lat="49.02747" lon="1.74993">
        <ele>117</ele>
        <time>2023-01-10T10:46:43Z</time>
      </trkpt>
      <trkpt lat="49.02742" lon="1.7497">
        <ele>116</ele>
        <time>2023-01-10T10:47:04Z</time>
      </trkpt>
      <trkpt lat="49.02739" lon="1.74902">
        <ele>113</ele>
        <time>2023-01-10T10:48:04Z</time>
      </trkpt>
      <trkpt lat="49.02715" lon="1.74819">
        <ele>104</ele>
        <time>2023-01-10T10:49:23Z</time>
      </trkpt>
      <trkpt lat="49.02701" lon="1.74702">
        <ele>95</ele>
        <time>2023-01-10T10:51:07Z</time>
      </trkpt>
      <trkpt lat="49.02674" lon="1.7466">
        <ele>94</ele>
        <time>2023-01-10T10:51:59Z</time>
      </trkpt>
      <trkpt lat="49.02643" lon="1.74577">
        <ele>98</ele>
        <time>2023-01-10T10:53:22Z</time>
      </trkpt>
      <trkpt lat="49.02614" lon="1.74522">
        <ele>102</ele>
        <time>2023-01-10T10:54:24Z</time>
      </trkpt>
      <trkpt lat="49.02571" lon="1.74423">
        <ele>110</ele>
        <time>2023-01-10T10:56:08Z</time>
      </trkpt>
      <trkpt lat="49.02557" lon="1.74409">
        <ele>111</ele>
        <time>2023-01-10T10:56:30Z</time>
      </trkpt>
      <trkpt lat="49.02518" lon="1.7433">
        <ele>117</ele>
        <time>2023-01-10T10:57:57Z</time>
      </trkpt>
      <trkpt lat="49.0253" lon="1.74306">
        <ele>119</ele>
        <time>2023-01-10T10:58:23Z</time>
      </trkpt>
      <trkpt lat="49.02566" lon="1.74256">
        <ele>122</ele>
        <time>2023-01-10T10:59:28Z</time>
      </trkpt>
      <trkpt lat="49.02574" lon="1.74233">
        <ele>123</ele>
        <time>2023-01-10T10:59:51Z</time>
      </trkpt>
      <trkpt lat="49.026" lon="1.74189">
        <ele>124</ele>
        <time>2023-01-10T11:00:43Z</time>
      </trkpt>
      <trkpt lat="49.02618" lon="1.74166">
        <ele>124</ele>
        <time>2023-01-10T11:01:14Z</time>
      </trkpt>
      <trkpt lat="49.02654" lon="1.74134">
        <ele>126</ele>
        <time>2023-01-10T11:02:10Z</time>
      </trkpt>
      <trkpt lat="49.02708" lon="1.74061">
        <ele>128</ele>
        <time>2023-01-10T11:03:46Z</time>
      </trkpt>
      <trkpt lat="49.02765" lon="1.73913">
        <ele>129</ele>
        <time>2023-01-10T11:06:16Z</time>
      </trkpt>
      <trkpt lat="49.02797" lon="1.7377">
        <ele>129</ele>
        <time>2023-01-10T11:08:28Z</time>
      </trkpt>
      <trkpt lat="49.02799" lon="1.7371">
        <ele>129</ele>
        <time>2023-01-10T11:09:21Z</time>
      </trkpt>
      <trkpt lat="49.02803" lon="1.73691">
        <ele>129</ele>
        <time>2023-01-10T11:09:38Z</time>
      </trkpt>
      <trkpt lat="49.02796" lon="1.73608">
        <ele>130</ele>
        <time>2023-01-10T11:10:52Z</time>
      </trkpt>
      <trkpt lat="49.02802" lon="1.73581">
        <ele>129</ele>
        <time>2023-01-10T11:11:17Z</time>
      </trkpt>
      <trkpt lat="49.02815" lon="1.73558">
        <ele>130</ele>
        <time>2023-01-10T11:11:43Z</time>
      </trkpt>
      <trkpt lat="49.02832" lon="1.73482">
        <ele>133</ele>
        <time>2023-01-10T11:12:53Z</time>
      </trkpt>
      <trkpt lat="49.02857" lon="1.73413">
        <ele>135</ele>
        <time>2023-01-10T11:14:02Z</time>
      </trkpt>
      <trkpt lat="49.02866" lon="1.73399">
        <ele>136</ele>
        <time>2023-01-10T11:14:20Z</time>
      </trkpt>
      <trkpt lat="49.02873" lon="1.73336">
        <ele>137</ele>
        <time>2023-01-10T11:15:15Z</time>
      </trkpt>
      <trkpt lat="49.02898" lon="1.73272">
        <ele>139</ele>
        <time>2023-01-10T11:16:21Z</time>
      </trkpt>
      <trkpt lat="49.02906" lon="1.73234">
        <ele>140</ele>
        <time>2023-01-10T11:16:56Z</time>
      </trkpt>
      <trkpt lat="49.02901" lon="1.73169">
        <ele>142</ele>
        <time>2023-01-10T11:17:53Z</time>
      </trkpt>
      <trkpt lat="49.0288" lon="1.73125">
        <ele>143</ele>
        <time>2023-01-10T11:18:40Z</time>
      </trkpt>
      <trkpt lat="49.02872" lon="1.73083">
        <ele>143</ele>
        <time>2023-01-10T11:19:19Z</time>
      </trkpt>
      <trkpt lat="49.02852" lon="1.7304">
        <ele>144</ele>
        <time>2023-01-10T11:20:05Z</time>
      </trkpt>
      <trkpt lat="49.02837" lon="1.7298">
        <ele>145</ele>
        <time>2023-01-10T11:21:01Z</time>
      </trkpt>
      <trkpt lat="49.02799" lon="1.72881">
        <ele>144</ele>
        <time>2023-01-10T11:22:41Z</time>
      </trkpt>
      <trkpt lat="49.02761" lon="1.72752">
        <ele>144</ele>
        <time>2023-01-10T11:24:45Z</time>
      </trkpt>
      <trkpt lat="49.02739" lon="1.727">
        <ele>144</ele>
        <time>2023-01-10T11:25:39Z</time>
      </trkpt>
      <trkpt lat="49.02732" lon="1.7267">
        <ele>145</ele>
        <time>2023-01-10T11:26:07Z</time>
      </trkpt>
      <trkpt lat="49.02677" lon="1.72535">
        <ele>146</ele>
        <time>2023-01-10T11:28:26Z</time>
      </trkpt>
      <trkpt lat="49.02662" lon="1.72474">
        <ele>147</ele>
        <time>2023-01-10T11:29:23Z</time>
      </trkpt>
      <trkpt lat="49.02628" lon="1.72387">
        <ele>146</ele>
        <time>2023-01-10T11:30:52Z</time>
      </trkpt>
      <trkpt lat="49.02602" lon="1.72299">
        <ele>145</ele>
        <time>2023-01-10T11:32:16Z</time>
      </trkpt>
      <trkpt lat="49.0258" lon="1.72255">
        <ele>144</ele>
        <time>2023-01-10T11:33:05Z</time>
      </trkpt>
      <trkpt lat="49.02559" lon="1.72192">
        <ele>145</ele>
        <time>2023-01-10T11:34:07Z</time>
      </trkpt>
      <trkpt lat="49.02548" lon="1.72136">
        <ele>144</ele>
        <time>2023-01-10T11:34:58Z</time>
      </trkpt>
      <trkpt lat="49.02521" lon="1.72085">
        <ele>142</ele>
        <time>2023-01-10T11:35:55Z</time>
      </trkpt>
      <trkpt lat="49.02506" lon="1.72036">
        <ele>141</ele>
        <time>2023-01-10T11:36:42Z</time>
      </trkpt>
      <trkpt lat="49.0249" lon="1.72003">
        <ele>140</ele>
        <time>2023-01-10T11:37:18Z</time>
      </trkpt>
      <trkpt lat="49.02458" lon="1.7189">
        <ele>138</ele>
        <time>2023-01-10T11:39:06Z</time>
      </trkpt>
      <trkpt lat="49.0243" lon="1.71826">
        <ele>136</ele>
        <time>2023-01-10T11:40:13Z</time>
      </trkpt>
      <trkpt lat="49.02416" lon="1.71758">
        <ele>132</ele>
        <time>2023-01-10T11:41:16Z</time>
      </trkpt>
      <trkpt lat="49.02362" lon="1.71679">
        <ele>128</ele>
        <time>2023-01-10T11:42:56Z</time>
      </trkpt>
      <trkpt lat="49.02255" lon="1.7154">
        <ele>126</ele>
        <time>2023-01-10T11:46:03Z</time>
      </trkpt>
      <trkpt lat="49.02209" lon="1.71463">
        <ele>124</ele>
        <time>2023-01-10T11:47:34Z</time>
      </trkpt>
      <trkpt lat="49.02159" lon="1.71407">
        <ele>122</ele>
        <time>2023-01-10T11:48:57Z</time>
      </trkpt>
      <trkpt lat="49.02158" lon="1.71397">
        <ele>122</ele>
        <time>2023-01-10T11:49:06Z</time>
      </trkpt>
      <trkpt lat="49.02166" lon="1.71371">
        <ele>122</ele>
        <time>2023-01-10T11:49:31Z</time>
      </trkpt>
      <trkpt lat="49.02192" lon="1.7132">
        <ele>121</ele>
        <time>2023-01-10T11:50:28Z</time>
      </trkpt>
      <trkpt lat="49.02193" lon="1.71305">
        <ele>121</ele>
        <time>2023-01-10T11:50:41Z</time>
      </trkpt>
      <trkpt lat="49.02186" lon="1.71274">
        <ele>119</ele>
        <time>2023-01-10T11:51:10Z</time>
      </trkpt>
      <trkpt lat="49.0218" lon="1.71275">
        <ele>119</ele>
        <time>2023-01-10T11:51:18Z</time>
      </trkpt>
      <trkpt lat="49.02187" lon="1.71292">
        <ele>120</ele>
        <time>2023-01-10T11:51:35Z</time>
      </trkpt>
      <trkpt lat="49.02186" lon="1.7132">
        <ele>121</ele>
        <time>2023-01-10T11:52:00Z</time>
      </trkpt>
      <trkpt lat="49.02177" lon="1.71343">
        <ele>121</ele>
        <time>2023-01-10T11:52:23Z</time>
      </trkpt>
      <trkpt lat="49.02174" lon="1.71343">
        <ele>121</ele>
        <time>2023-01-10T11:52:27Z</time>
      </trkpt>
      <trkpt lat="49.02167" lon="1.71335">
        <ele>121</ele>
        <time>2023-01-10T11:52:39Z</time>
      </trkpt>
      <trkpt lat="49.02157" lon="1.71287">
        <ele>119</ele>
        <time>2023-01-10T11:53:23Z</time>
      </trkpt>
      <trkpt lat="49.02137" lon="1.71253">
        <ele>116</ele>
        <time>2023-01-10T11:54:03Z</time>
      </trkpt>
      <trkpt lat="49.02124" lon="1.71249">
        <ele>114</ele>
        <time>2023-01-10T11:54:21Z</time>
      </trkpt>
      <trkpt lat="49.02112" lon="1.71252">
        <ele>113</ele>
        <time>2023-01-10T11:54:37Z</time>
      </trkpt>
      <trkpt lat="49.02066" lon="1.71241">
        <ele>111</ele>
        <time>2023-01-10T11:55:39Z</time>
      </trkpt>
      <trkpt lat="49.02052" lon="1.7123">
        <ele>111</ele>
        <time>2023-01-10T11:56:00Z</time>
      </trkpt>
      <trkpt lat="49.02057" lon="1.71176">
        <ele>108</ele>
        <time>2023-01-10T11:56:48Z</time>
      </trkpt>
      <trkpt lat="49.02072" lon="1.71135">
        <ele>106</ele>
        <time>2023-01-10T11:57:29Z</time>
      </trkpt>
      <trkpt lat="49.02135" lon="1.71044">
        <ele>104</ele>
        <time>2023-01-10T11:59:25Z</time>
      </trkpt>
      <trkpt lat="49.02146" lon="1.71014">
        <ele>103</ele>
        <time>2023-01-10T11:59:55Z</time>
      </trkpt>
      <trkpt lat="49.02179" lon="1.70952">
        <ele>97</ele>
        <time>2023-01-10T12:01:04Z</time>
      </trkpt>
      <trkpt lat="49.02198" lon="1.70785">
        <ele>88</ele>
        <time>2023-01-10T12:03:33Z</time>
      </trkpt>
      <trkpt lat="49.02199" lon="1.70681">
        <ele>83</ele>
        <time>2023-01-10T12:05:04Z</time>
      </trkpt>
      <trkpt lat="49.02167" lon="1.70545">
        <ele>80</ele>
        <time>2023-01-10T12:07:10Z</time>
      </trkpt>
      <trkpt lat="49.02152" lon="1.70407">
        <ele>72</ele>
        <time>2023-01-10T12:09:13Z</time>
      </trkpt>
      <trkpt lat="49.02123" lon="1.70263">
        <ele>61</ele>
        <time>2023-01-10T12:11:25Z</time>
      </trkpt>
      <trkpt lat="49.02068" lon="1.70155">
        <ele>54</ele>
        <time>2023-01-10T12:13:24Z</time>
      </trkpt>
      <trkpt lat="49.02044" lon="1.70096">
        <ele>51</ele>
        <time>2023-01-10T12:14:25Z</time>
      </trkpt>
      <trkpt lat="49.02028" lon="1.7007">
        <ele>50</ele>
        <time>2023-01-10T12:14:56Z</time>
      </trkpt>
      <trkpt lat="49.01997" lon="1.70063">
        <ele>52</ele>
        <time>2023-01-10T12:15:38Z</time>
      </trkpt>
      <trkpt lat="49.01967" lon="1.70046">
        <ele>53</ele>
        <time>2023-01-10T12:16:21Z</time>
      </trkpt>
      <trkpt lat="49.01867" lon="1.69973">
        <ele>54</ele>
        <time>2023-01-10T12:18:49Z</time>
      </trkpt>
      <trkpt lat="49.01782" lon="1.69919">
        <ele>54</ele>
        <time>2023-01-10T12:20:52Z</time>
      </trkpt>
      <trkpt lat="49.01713" lon="1.69903">
        <ele>55</ele>
        <time>2023-01-10T12:22:25Z</time>
      </trkpt>
      <trkpt lat="49.01639" lon="1.69871">
        <ele>53</ele>
        <time>2023-01-10T12:24:07Z</time>
      </trkpt>
      <trkpt lat="49.01556" lon="1.69865">
        <ele>55</ele>
        <time>2023-01-10T12:25:58Z</time>
      </trkpt>
      <trkpt lat="49.01515" lon="1.69872">
        <ele>55</ele>
        <time>2023-01-10T12:26:53Z</time>
      </trkpt>
      <trkpt lat="49.01472" lon="1.69874">
        <ele>54</ele>
        <time>2023-01-10T12:27:51Z</time>
      </trkpt>
      <trkpt lat="49.01458" lon="1.69883">
        <ele>54</ele>
        <time>2023-01-10T12:28:11Z</time>
      </trkpt>
      <trkpt lat="49.01455" lon="1.69891">
        <ele>55</ele>
        <time>2023-01-10T12:28:19Z</time>
      </trkpt>
      <trkpt lat="49.01457" lon="1.69935">
        <ele>62</ele>
        <time>2023-01-10T12:28:58Z</time>
      </trkpt>
      <trkpt lat="49.01449" lon="1.69969">
        <ele>68</ele>
        <time>2023-01-10T12:29:29Z</time>
      </trkpt>
      <trkpt lat="49.01369" lon="1.70121">
        <ele>82</ele>
        <time>2023-01-10T12:32:20Z</time>
      </trkpt>
      <trkpt lat="49.01335" lon="1.70234">
        <ele>89</ele>
        <time>2023-01-10T12:34:09Z</time>
      </trkpt>
      <trkpt lat="49.01335" lon="1.70268">
        <ele>93</ele>
        <time>2023-01-10T12:34:38Z</time>
      </trkpt>
      <trkpt lat="49.01352" lon="1.70301">
        <ele>100</ele>
        <time>2023-01-10T12:35:15Z</time>
      </trkpt>
      <trkpt lat="49.01358" lon="1.70327">
        <ele>103</ele>
        <time>2023-01-10T12:35:39Z</time>
      </trkpt>
      <trkpt lat="49.01367" lon="1.70332">
        <ele>105</ele>
        <time>2023-01-10T12:35:52Z</time>
      </trkpt>
      <trkpt lat="49.01386" lon="1.70305">
        <ele>106</ele>
        <time>2023-01-10T12:36:27Z</time>
      </trkpt>
      <trkpt lat="49.01398" lon="1.70295">
        <ele>108</ele>
        <time>2023-01-10T12:36:45Z</time>
      </trkpt>
      <trkpt lat="49.01409" lon="1.70276">
        <ele>109</ele>
        <time>2023-01-10T12:37:07Z</time>
      </trkpt>
      <trkpt lat="49.01418" lon="1.7027">
        <ele>110</ele>
        <time>2023-01-10T12:37:20Z</time>
      </trkpt>
      <trkpt lat="49.01433" lon="1.70235">
        <ele>110</ele>
        <time>2023-01-10T12:37:57Z</time>
      </trkpt>
      <trkpt lat="49.01461" lon="1.70199">
        <ele>109</ele>
        <time>2023-01-10T12:38:46Z</time>
      </trkpt>
      <trkpt lat="49.01484" lon="1.70178">
        <ele>109</ele>
        <time>2023-01-10T12:39:21Z</time>
      </trkpt>
      <trkpt lat="49.01503" lon="1.70167">
        <ele>109</ele>
        <time>2023-01-10T12:39:49Z</time>
      </trkpt>
      <trkpt lat="49.01514" lon="1.70163">
        <ele>110</ele>
        <time>2023-01-10T12:40:04Z</time>
      </trkpt>
      <trkpt lat="49.01533" lon="1.70165">
        <ele>113</ele>
        <time>2023-01-10T12:40:29Z</time>
      </trkpt>
      <trkpt lat="49.01548" lon="1.7016">
        <ele>113</ele>
        <time>2023-01-10T12:40:50Z</time>
      </trkpt>
      <trkpt lat="49.01561" lon="1.70161">
        <ele>115</ele>
        <time>2023-01-10T12:41:07Z</time>
      </trkpt>
      <trkpt lat="49.01576" lon="1.70156">
        <ele>116</ele>
        <time>2023-01-10T12:41:27Z</time>
      </trkpt>
      <trkpt lat="49.01589" lon="1.7016">
        <ele>117</ele>
        <time>2023-01-10T12:41:45Z</time>
      </trkpt>
      <trkpt lat="49.01596" lon="1.70157">
        <ele>116</ele>
        <time>2023-01-10T12:41:55Z</time>
      </trkpt>
      <trkpt lat="49.01614" lon="1.7016">
        <ele>117</ele>
        <time>2023-01-10T12:42:19Z</time>
      </trkpt>
      <trkpt lat="49.01646" lon="1.70156">
        <ele>115</ele>
        <time>2023-01-10T12:43:02Z</time>
      </trkpt>
      <trkpt lat="49.01675" lon="1.70171">
        <ele>116</ele>
        <time>2023-01-10T12:43:43Z</time>
      </trkpt>
      <trkpt lat="49.01702" lon="1.70198">
        <ele>117</ele>
        <time>2023-01-10T12:44:26Z</time>
      </trkpt>
      <trkpt lat="49.01737" lon="1.70216">
        <ele>116</ele>
        <time>2023-01-10T12:45:15Z</time>
      </trkpt>
      <trkpt lat="49.01761" lon="1.70245">
        <ele>118</ele>
        <time>2023-01-10T12:45:56Z</time>
      </trkpt>
      <trkpt lat="49.01778" lon="1.70258">
        <ele>116</ele>
        <time>2023-01-10T12:46:21Z</time>
      </trkpt>
      <trkpt lat="49.0179" lon="1.70311">
        <ele>121</ele>
        <time>2023-01-10T12:47:10Z</time>
      </trkpt>
      <trkpt lat="49.0182" lon="1.70372">
        <ele>124</ele>
        <time>2023-01-10T12:48:17Z</time>
      </trkpt>
      <trkpt lat="49.01827" lon="1.70398">
        <ele>126</ele>
        <time>2023-01-10T12:48:42Z</time>
      </trkpt>
      <trkpt lat="49.01842" lon="1.70408">
        <ele>126</ele>
        <time>2023-01-10T12:49:04Z</time>
      </trkpt>
      <trkpt lat="49.01857" lon="1.7044">
        <ele>127</ele>
        <time>2023-01-10T12:49:38Z</time>
      </trkpt>
      <trkpt lat="49.01877" lon="1.70455">
        <ele>126</ele>
        <time>2023-01-10T12:50:08Z</time>
      </trkpt>
      <trkpt lat="49.01887" lon="1.70468">
        <ele>126</ele>
        <time>2023-01-10T12:50:25Z</time>
      </trkpt>
      <trkpt lat="49.01896" lon="1.70517">
        <ele>129</ele>
        <time>2023-01-10T12:51:10Z</time>
      </trkpt>
      <trkpt lat="49.019" lon="1.70522">
        <ele>129</ele>
        <time>2023-01-10T12:51:17Z</time>
      </trkpt>
      <trkpt lat="49.01925" lon="1.70523">
        <ele>125</ele>
        <time>2023-01-10T12:51:50Z</time>
      </trkpt>
      <trkpt lat="49.0194" lon="1.70565">
        <ele>126</ele>
        <time>2023-01-10T12:52:32Z</time>
      </trkpt>
      <trkpt lat="49.01952" lon="1.70585">
        <ele>126</ele>
        <time>2023-01-10T12:52:56Z</time>
      </trkpt>
      <trkpt lat="49.01963" lon="1.70597">
        <ele>125</ele>
        <time>2023-01-10T12:53:14Z</time>
      </trkpt>
      <trkpt lat="49.01986" lon="1.70606">
        <ele>123</ele>
        <time>2023-01-10T12:53:45Z</time>
      </trkpt>
      <trkpt lat="49.02001" lon="1.70619">
        <ele>122</ele>
        <time>2023-01-10T12:54:08Z</time>
      </trkpt>
      <trkpt lat="49.02019" lon="1.70662">
        <ele>123</ele>
        <time>2023-01-10T12:54:53Z</time>
      </trkpt>
      <trkpt lat="49.02022" lon="1.70706">
        <ele>126</ele>
        <time>2023-01-10T12:55:32Z</time>
      </trkpt>
      <trkpt lat="49.02029" lon="1.70725">
        <ele>126</ele>
        <time>2023-01-10T12:55:51Z</time>
      </trkpt>
      <trkpt lat="49.02032" lon="1.70754">
        <ele>127</ele>
        <time>2023-01-10T12:56:17Z</time>
      </trkpt>
      <trkpt lat="49.02026" lon="1.70824">
        <ele>127</ele>
        <time>2023-01-10T12:57:18Z</time>
      </trkpt>
      <trkpt lat="49.02019" lon="1.70852">
        <ele>127</ele>
        <time>2023-01-10T12:57:45Z</time>
      </trkpt>
      <trkpt lat="49.01983" lon="1.70917">
        <ele>127</ele>
        <time>2023-01-10T12:58:59Z</time>
      </trkpt>
      <trkpt lat="49.01958" lon="1.70978">
        <ele>126</ele>
        <time>2023-01-10T13:00:02Z</time>
      </trkpt>
      <trkpt lat="49.01916" lon="1.71171">
        <ele>126</ele>
        <time>2023-01-10T13:03:00Z</time>
      </trkpt>
      <trkpt lat="49.01908" lon="1.71249">
        <ele>125</ele>
        <time>2023-01-10T13:04:09Z</time>
      </trkpt>
      <trkpt lat="49.01899" lon="1.71295">
        <ele>125</ele>
        <time>2023-01-10T13:04:51Z</time>
      </trkpt>
      <trkpt lat="49.01899" lon="1.71321">
        <ele>125</ele>
        <time>2023-01-10T13:05:14Z</time>
      </trkpt>
      <trkpt lat="49.01911" lon="1.71375">
        <ele>124</ele>
        <time>2023-01-10T13:06:04Z</time>
      </trkpt>
      <trkpt lat="49.01903" lon="1.71378">
        <ele>125</ele>
        <time>2023-01-10T13:06:15Z</time>
      </trkpt>
      <trkpt lat="49.01866" lon="1.71373">
        <ele>127</ele>
        <time>2023-01-10T13:07:04Z</time>
      </trkpt>
      <trkpt lat="49.01849" lon="1.71366">
        <ele>128</ele>
        <time>2023-01-10T13:07:28Z</time>
      </trkpt>
      <trkpt lat="49.01828" lon="1.71374">
        <ele>130</ele>
        <time>2023-01-10T13:07:57Z</time>
      </trkpt>
      <trkpt lat="49.01813" lon="1.71368">
        <ele>130</ele>
        <time>2023-01-10T13:08:17Z</time>
      </trkpt>
      <trkpt lat="49.01803" lon="1.7137">
        <ele>131</ele>
        <time>2023-01-10T13:08:31Z</time>
      </trkpt>
      <trkpt lat="49.01767" lon="1.71431">
        <ele>132</ele>
        <time>2023-01-10T13:09:43Z</time>
      </trkpt>
      <trkpt lat="49.01719" lon="1.71478">
        <ele>133</ele>
        <time>2023-01-10T13:10:59Z</time>
      </trkpt>
      <trkpt lat="49.01713" lon="1.7149">
        <ele>133</ele>
        <time>2023-01-10T13:11:12Z</time>
      </trkpt>
      <trkpt lat="49.01719" lon="1.71504">
        <ele>132</ele>
        <time>2023-01-10T13:11:27Z</time>
      </trkpt>
      <trkpt lat="49.01744" lon="1.71518">
        <ele>132</ele>
        <time>2023-01-10T13:12:02Z</time>
      </trkpt>
      <trkpt lat="49.01816" lon="1.71577">
        <ele>129</ele>
        <time>2023-01-10T13:13:51Z</time>
      </trkpt>
      <trkpt lat="49.01817" lon="1.71586">
        <ele>129</ele>
        <time>2023-01-10T13:13:59Z</time>
      </trkpt>
      <trkpt lat="49.01812" lon="1.71591">
        <ele>129</ele>
        <time>2023-01-10T13:14:07Z</time>
      </trkpt>
      <trkpt lat="49.01796" lon="1.71595">
        <ele>129</ele>
        <time>2023-01-10T13:14:29Z</time>
      </trkpt>
      <trkpt lat="49.01817" lon="1.71598">
        <ele>128</ele>
        <time>2023-01-10T13:14:57Z</time>
      </trkpt>
      <trkpt lat="49.0182" lon="1.7161">
        <ele>128</ele>
        <time>2023-01-10T13:15:08Z</time>
      </trkpt>
      <trkpt lat="49.01794" lon="1.71671">
        <ele>128</ele>
        <time>2023-01-10T13:16:12Z</time>
      </trkpt>
      <trkpt lat="49.01743" lon="1.71813">
        <ele>130</ele>
        <time>2023-01-10T13:18:33Z</time>
      </trkpt>
      <trkpt lat="49.01686" lon="1.71945">
        <ele>132</ele>
        <time>2023-01-10T13:20:52Z</time>
      </trkpt>
      <trkpt lat="49.01677" lon="1.71984">
        <ele>134</ele>
        <time>2023-01-10T13:21:28Z</time>
      </trkpt>
      <trkpt lat="49.01683" lon="1.71998">
        <ele>134</ele>
        <time>2023-01-10T13:21:43Z</time>
      </trkpt>
      <trkpt lat="49.01732" lon="1.72042">
        <ele>133</ele>
        <time>2023-01-10T13:22:59Z</time>
      </trkpt>
      <trkpt lat="49.01771" lon="1.72069">
        <ele>132</ele>
        <time>2023-01-10T13:23:56Z</time>
      </trkpt>
      <trkpt lat="49.01801" lon="1.72084">
        <ele>131</ele>
        <time>2023-01-10T13:24:38Z</time>
      </trkpt>
      <trkpt lat="49.01825" lon="1.72118">
        <ele>130</ele>
        <time>2023-01-10T13:25:22Z</time>
      </trkpt>
      <trkpt lat="49.01862" lon="1.72151">
        <ele>129</ele>
        <time>2023-01-10T13:26:19Z</time>
      </trkpt>
      <trkpt lat="49.0192" lon="1.72184">
        <ele>128</ele>
        <time>2023-01-10T13:27:41Z</time>
      </trkpt>
      <trkpt lat="49.0194" lon="1.72205">
        <ele>128</ele>
        <time>2023-01-10T13:28:14Z</time>
      </trkpt>
      <trkpt lat="49.01924" lon="1.72339">
        <ele>133</ele>
        <time>2023-01-10T13:30:13Z</time>
      </trkpt>
      <trkpt lat="49.01914" lon="1.72367">
        <ele>134</ele>
        <time>2023-01-10T13:30:41Z</time>
      </trkpt>
      <trkpt lat="49.0192" lon="1.72398">
        <ele>136</ele>
        <time>2023-01-10T13:31:09Z</time>
      </trkpt>
      <trkpt lat="49.01919" lon="1.72413">
        <ele>136</ele>
        <time>2023-01-10T13:31:22Z</time>
      </trkpt>
      <trkpt lat="49.01879" lon="1.72547">
        <ele>139</ele>
        <time>2023-01-10T13:33:31Z</time>
      </trkpt>
      <trkpt lat="49.01882" lon="1.72555">
        <ele>139</ele>
        <time>2023-01-10T13:33:39Z</time>
      </trkpt>
      <trkpt lat="49.01894" lon="1.72566">
        <ele>140</ele>
        <time>2023-01-10T13:33:58Z</time>
      </trkpt>
      <trkpt lat="49.01922" lon="1.72583">
        <ele>141</ele>
        <time>2023-01-10T13:34:38Z</time>
      </trkpt>
      <trkpt lat="49.01974" lon="1.72605">
        <ele>142</ele>
        <time>2023-01-10T13:35:50Z</time>
      </trkpt>
      <trkpt lat="49.0197" lon="1.72717">
        <ele>142</ele>
        <time>2023-01-10T13:37:28Z</time>
      </trkpt>
      <trkpt lat="49.01974" lon="1.72738">
        <ele>142</ele>
        <time>2023-01-10T13:37:47Z</time>
      </trkpt>
      <trkpt lat="49.01988" lon="1.72755">
        <ele>143</ele>
        <time>2023-01-10T13:38:11Z</time>
      </trkpt>
      <trkpt lat="49.01982" lon="1.72789">
        <ele>142</ele>
        <time>2023-01-10T13:38:42Z</time>
      </trkpt>
      <trkpt lat="49.01984" lon="1.72843">
        <ele>141</ele>
        <time>2023-01-10T13:39:29Z</time>
      </trkpt>
      <trkpt lat="49.0198" lon="1.72877">
        <ele>140</ele>
        <time>2023-01-10T13:40:00Z</time>
      </trkpt>
      <trkpt lat="49.01972" lon="1.72904">
        <ele>140</ele>
        <time>2023-01-10T13:40:26Z</time>
      </trkpt>
      <trkpt lat="49.01972" lon="1.72923">
        <ele>139</ele>
        <time>2023-01-10T13:40:42Z</time>
      </trkpt>
      <trkpt lat="49.01976" lon="1.72943">
        <ele>139</ele>
        <time>2023-01-10T13:41:01Z</time>
      </trkpt>
      <trkpt lat="49.01988" lon="1.72962">
        <ele>139</ele>
        <time>2023-01-10T13:41:24Z</time>
      </trkpt>
      <trkpt lat="49.01993" lon="1.73036">
        <ele>139</ele>
        <time>2023-01-10T13:42:29Z</time>
      </trkpt>
      <trkpt lat="49.01984" lon="1.73064">
        <ele>139</ele>
        <time>2023-01-10T13:42:56Z</time>
      </trkpt>
      <trkpt lat="49.01982" lon="1.7309">
        <ele>139</ele>
        <time>2023-01-10T13:43:19Z</time>
      </trkpt>
      <trkpt lat="49.01994" lon="1.73109">
        <ele>140</ele>
        <time>2023-01-10T13:43:42Z</time>
      </trkpt>
      <trkpt lat="49.01994" lon="1.73118">
        <ele>140</ele>
        <time>2023-01-10T13:43:50Z</time>
      </trkpt>
      <trkpt lat="49.01974" lon="1.7317">
        <ele>139</ele>
        <time>2023-01-10T13:44:43Z</time>
      </trkpt>
      <trkpt lat="49.01973" lon="1.73237">
        <ele>139</ele>
        <time>2023-01-10T13:45:41Z</time>
      </trkpt>
      <trkpt lat="49.01974" lon="1.73246">
        <ele>138</ele>
        <time>2023-01-10T13:45:49Z</time>
      </trkpt>
      <trkpt lat="49.01997" lon="1.73261">
        <ele>139</ele>
        <time>2023-01-10T13:46:23Z</time>
      </trkpt>
      <trkpt lat="49.01998" lon="1.7328">
        <ele>139</ele>
        <time>2023-01-10T13:46:39Z</time>
      </trkpt>
      <trkpt lat="49.01982" lon="1.73327">
        <ele>137</ele>
        <time>2023-01-10T13:47:26Z</time>
      </trkpt>
      <trkpt lat="49.01972" lon="1.73374">
        <ele>134</ele>
        <time>2023-01-10T13:48:09Z</time>
      </trkpt>
      <trkpt lat="49.01977" lon="1.73439">
        <ele>133</ele>
        <time>2023-01-10T13:49:06Z</time>
      </trkpt>
      <trkpt lat="49.01972" lon="1.7347">
        <ele>133</ele>
        <time>2023-01-10T13:49:34Z</time>
      </trkpt>
      <trkpt lat="49.01973" lon="1.7352">
        <ele>133</ele>
        <time>2023-01-10T13:50:18Z</time>
      </trkpt>
      <trkpt lat="49.01969" lon="1.73553">
        <ele>133</ele>
        <time>2023-01-10T13:50:47Z</time>
      </trkpt>
      <trkpt lat="49.01974" lon="1.73589">
        <ele>134</ele>
        <time>2023-01-10T13:51:20Z</time>
      </trkpt>
      <trkpt lat="49.01974" lon="1.73626">
        <ele>133</ele>
        <time>2023-01-10T13:51:52Z</time>
      </trkpt>
      <trkpt lat="49.01963" lon="1.73684">
        <ele>133</ele>
        <time>2023-01-10T13:52:45Z</time>
      </trkpt>
      <trkpt lat="49.01963" lon="1.73771">
        <ele>133</ele>
        <time>2023-01-10T13:54:01Z</time>
      </trkpt>
      <trkpt lat="49.01967" lon="1.73788">
        <ele>133</ele>
        <time>2023-01-10T13:54:17Z</time>
      </trkpt>
      <trkpt lat="49.01961" lon="1.73819">
        <ele>132</ele>
        <time>2023-01-10T13:54:45Z</time>
      </trkpt>
      <trkpt lat="49.01964" lon="1.73833">
        <ele>131</ele>
        <time>2023-01-10T13:54:58Z</time>
      </trkpt>
      <trkpt lat="49.01962" lon="1.73863">
        <ele>131</ele>
        <time>2023-01-10T13:55:24Z</time>
      </trkpt>
      <trkpt lat="49.01939" lon="1.7399">
        <ele>129</ele>
        <time>2023-01-10T13:57:20Z</time>
      </trkpt>
      <trkpt lat="49.01937" lon="1.74034">
        <ele>128</ele>
        <time>2023-01-10T13:57:58Z</time>
      </trkpt>
      <trkpt lat="49.01943" lon="1.74083">
        <ele>128</ele>
        <time>2023-01-10T13:58:42Z</time>
      </trkpt>
      <trkpt lat="49.01958" lon="1.7415">
        <ele>129</ele>
        <time>2023-01-10T13:59:44Z</time>
      </trkpt>
      <trkpt lat="49.0196" lon="1.74205">
        <ele>129</ele>
        <time>2023-01-10T14:00:32Z</time>
      </trkpt>
      <trkpt lat="49.01993" lon="1.74359">
        <ele>128</ele>
        <time>2023-01-10T14:02:54Z</time>
      </trkpt>
      <trkpt lat="49.02001" lon="1.74424">
        <ele>127</ele>
        <time>2023-01-10T14:03:52Z</time>
      </trkpt>
      <trkpt lat="49.01999" lon="1.74483">
        <ele>126</ele>
        <time>2023-01-10T14:04:43Z</time>
      </trkpt>
      <trkpt lat="49.01993" lon="1.74551">
        <ele>125</ele>
        <time>2023-01-10T14:05:43Z</time>
      </trkpt>
      <trkpt lat="49.01981" lon="1.7461">
        <ele>125</ele>
        <time>2023-01-10T14:06:37Z</time>
      </trkpt>
      <trkpt lat="49.01985" lon="1.74694">
        <ele>123</ele>
        <time>2023-01-10T14:07:51Z</time>
      </trkpt>
      <trkpt lat="49.01977" lon="1.74809">
        <ele>121</ele>
        <time>2023-01-10T14:09:32Z</time>
      </trkpt>
      <trkpt lat="49.01952" lon="1.74995">
        <ele>117</ele>
        <time>2023-01-10T14:12:18Z</time>
      </trkpt>
      <trkpt lat="49.01938" lon="1.75055">
        <ele>115</ele>
        <time>2023-01-10T14:13:14Z</time>
      </trkpt>
      <trkpt lat="49.01871" lon="1.75253">
        <ele>109</ele>
        <time>2023-01-10T14:16:29Z</time>
      </trkpt>
      <trkpt lat="49.01863" lon="1.75296">
        <ele>108</ele>
        <time>2023-01-10T14:17:08Z</time>
      </trkpt>
      <trkpt lat="49.01832" lon="1.75401">
        <ele>107</ele>
        <time>2023-01-10T14:18:49Z</time>
      </trkpt>
      <trkpt lat="49.01839" lon="1.75464">
        <ele>105</ele>
        <time>2023-01-10T14:19:45Z</time>
      </trkpt>
      <trkpt lat="49.01852" lon="1.75499">
        <ele>103</ele>
        <time>2023-01-10T14:20:20Z</time>
      </trkpt>
      <trkpt lat="49.01854" lon="1.75517">
        <ele>103</ele>
        <time>2023-01-10T14:20:36Z</time>
      </trkpt>
      <trkpt lat="49.01839" lon="1.75621">
        <ele>100</ele>
        <time>2023-01-10T14:22:09Z</time>
      </trkpt>
      <trkpt lat="49.01842" lon="1.75668">
        <ele>97</ele>
        <time>2023-01-10T14:22:51Z</time>
      </trkpt>
      <trkpt lat="49.01836" lon="1.75734">
        <ele>95</ele>
        <time>2023-01-10T14:23:49Z</time>
      </trkpt>
      <trkpt lat="49.01823" lon="1.75807">
        <ele>91</ele>
        <time>2023-01-10T14:24:55Z</time>
      </trkpt>
      <trkpt lat="49.01831" lon="1.75843">
        <ele>90</ele>
        <time>2023-01-10T14:25:28Z</time>
      </trkpt>
      <trkpt lat="49.01844" lon="1.75863">
        <ele>89</ele>
        <time>2023-01-10T14:25:53Z</time>
      </trkpt>
      <trkpt lat="49.01877" lon="1.75898">
        <ele>88</ele>
        <time>2023-01-10T14:26:47Z</time>
      </trkpt>
      <trkpt lat="49.01893" lon="1.7593">
        <ele>86</ele>
        <time>2023-01-10T14:27:22Z</time>
      </trkpt>
      <trkpt lat="49.019" lon="1.75956">
        <ele>85</ele>
        <time>2023-01-10T14:27:47Z</time>
      </trkpt>
      <trkpt lat="49.01906" lon="1.76012">
        <ele>83</ele>
        <time>2023-01-10T14:28:36Z</time>
      </trkpt>
      <trkpt lat="49.01924" lon="1.76077">
        <ele>80</ele>
        <time>2023-01-10T14:29:38Z</time>
      </trkpt>
      <trkpt lat="49.01929" lon="1.76126">
        <ele>79</ele>
        <time>2023-01-10T14:30:21Z</time>
      </trkpt>
      <trkpt lat="49.01942" lon="1.76148">
        <ele>79</ele>
        <time>2023-01-10T14:30:47Z</time>
      </trkpt>
      <trkpt lat="49.01944" lon="1.76166">
        <ele>79</ele>
        <time>2023-01-10T14:31:03Z</time>
      </trkpt>
      <trkpt lat="49.01953" lon="1.76186">
        <ele>79</ele>
        <time>2023-01-10T14:31:24Z</time>
      </trkpt>
      <trkpt lat="49.01966" lon="1.76199">
        <ele>80</ele>
        <time>2023-01-10T14:31:45Z</time>
      </trkpt>
      <trkpt lat="49.01982" lon="1.76198">
        <ele>80</ele>
        <time>2023-01-10T14:32:07Z</time>
      </trkpt>
      <trkpt lat="49.01995" lon="1.76186">
        <ele>80</ele>
        <time>2023-01-10T14:32:27Z</time>
      </trkpt>
      <trkpt lat="49.02" lon="1.76187">
        <ele>80</ele>
        <time>2023-01-10T14:32:34Z</time>
      </trkpt>
      <trkpt lat="49.02004" lon="1.76194">
        <ele>81</ele>
        <time>2023-01-10T14:32:42Z</time>
      </trkpt>
      <trkpt lat="49.02012" lon="1.76249">
        <ele>82</ele>
        <time>2023-01-10T14:33:31Z</time>
      </trkpt>
      <trkpt lat="49.02006" lon="1.76329">
        <ele>85</ele>
        <time>2023-01-10T14:34:42Z</time>
      </trkpt>
      <trkpt lat="49.02009" lon="1.76406">
        <ele>92</ele>
        <time>2023-01-10T14:35:49Z</time>
      </trkpt>
      <trkpt lat="49.02013" lon="1.76419">
        <ele>93</ele>
        <time>2023-01-10T14:36:02Z</time>
      </trkpt>
      <trkpt lat="49.02032" lon="1.76415">
        <ele>93</ele>
        <time>2023-01-10T14:36:27Z</time>
      </trkpt>
      <trkpt lat="49.02038" lon="1.76421">
        <ele>94</ele>
        <time>2023-01-10T14:36:37Z</time>
      </trkpt>
      <trkpt lat="49.02049" lon="1.76467">
        <ele>99</ele>
        <time>2023-01-10T14:37:20Z</time>
      </trkpt>
      <trkpt lat="49.02034" lon="1.76492">
        <ele>101</ele>
        <time>2023-01-10T14:37:49Z</time>
      </trkpt>
      <trkpt lat="49.02016" lon="1.76536">
        <ele>104</ele>
        <time>2023-01-10T14:38:35Z</time>
      </trkpt>
      <trkpt lat="49.02" lon="1.76612">
        <ele>109</ele>
        <time>2023-01-10T14:39:44Z</time>
      </trkpt>
      <trkpt lat="49.02003" lon="1.76666">
        <ele>110</ele>
        <time>2023-01-10T14:40:32Z</time>
      </trkpt>
      <trkpt lat="49.01996" lon="1.76644">
        <ele>110</ele>
        <time>2023-01-10T14:40:53Z</time>
      </trkpt>
      <trkpt lat="49.02038" lon="1.76814">
        <ele>117</ele>
        <time>2023-01-10T14:43:32Z</time>
      </trkpt>
      <trkpt lat="49.02042" lon="1.76882">
        <ele>120</ele>
        <time>2023-01-10T14:44:32Z</time>
      </trkpt>
      <trkpt lat="49.02039" lon="1.77007">
        <ele>125</ele>
        <time>2023-01-10T14:46:22Z</time>
      </trkpt>
      <trkpt lat="49.01988" lon="1.77251">
        <ele>125</ele>
        <time>2023-01-10T14:50:06Z</time>
      </trkpt>
      <trkpt lat="49.01972" lon="1.77306">
        <ele>125</ele>
        <time>2023-01-10T14:50:58Z</time>
      </trkpt>
      <trkpt lat="49.01968" lon="1.77345">
        <ele>124</ele>
        <time>2023-01-10T14:51:33Z</time>
      </trkpt>
      <trkpt lat="49.01956" lon="1.77388">
        <ele>123</ele>
        <time>2023-01-10T14:52:14Z</time>
      </trkpt>
      <trkpt lat="49.01959" lon="1.774">
        <ele>123</ele>
        <time>2023-01-10T14:52:25Z</time>
      </trkpt>
      <trkpt lat="49.02007" lon="1.77467">
        <ele>125</ele>
        <time>2023-01-10T14:53:52Z</time>
      </trkpt>
      <trkpt lat="49.02077" lon="1.77603">
        <ele>129</ele>
        <time>2023-01-10T14:56:23Z</time>
      </trkpt>
      <trkpt lat="49.02131" lon="1.77683">
        <ele>134</ele>
        <time>2023-01-10T14:58:04Z</time>
      </trkpt>
      <trkpt lat="49.02143" lon="1.77691">
        <ele>135</ele>
        <time>2023-01-10T14:58:21Z</time>
      </trkpt>
      <trkpt lat="49.02156" lon="1.7771">
        <ele>138</ele>
        <time>2023-01-10T14:58:45Z</time>
      </trkpt>
      <trkpt lat="49.02169" lon="1.7772">
        <ele>139</ele>
        <time>2023-01-10T14:59:05Z</time>
      </trkpt>
      <trkpt lat="49.02197" lon="1.77774">
        <ele>143</ele>
        <time>2023-01-10T15:00:05Z</time>
      </trkpt>
      <trkpt lat="49.02238" lon="1.77832">
        <ele>147</ele>
        <time>2023-01-10T15:01:19Z</time>
      </trkpt>
      <trkpt lat="49.02256" lon="1.77849">
        <ele>148</ele>
        <time>2023-01-10T15:01:48Z</time>
      </trkpt>
      <trkpt lat="49.02291" lon="1.77896">
        <ele>150</ele>
        <time>2023-01-10T15:02:50Z</time>
      </trkpt>
      <trkpt lat="49.02333" lon="1.77928">
        <ele>152</ele>
        <time>2023-01-10T15:03:53Z</time>
      </trkpt>
      <trkpt lat="49.02341" lon="1.77941">
        <ele>153</ele>
        <time>2023-01-10T15:04:08Z</time>
      </trkpt>
      <trkpt lat="49.02353" lon="1.77947">
        <ele>154</ele>
        <time>2023-01-10T15:04:25Z</time>
      </trkpt>
      <trkpt lat="49.02368" lon="1.77966">
        <ele>155</ele>
        <time>2023-01-10T15:04:51Z</time>
      </trkpt>
      <trkpt lat="49.0239" lon="1.77972">
        <ele>156</ele>
        <time>2023-01-10T15:05:21Z</time>
      </trkpt>
      <trkpt lat="49.02423" lon="1.77997">
        <ele>159</ele>
        <time>2023-01-10T15:06:10Z</time>
      </trkpt>
      <trkpt lat="49.0244" lon="1.78004">
        <ele>160</ele>
        <time>2023-01-10T15:06:33Z</time>
      </trkpt>
      <trkpt lat="49.02454" lon="1.78024">
        <ele>161</ele>
        <time>2023-01-10T15:06:59Z</time>
      </trkpt>
      <trkpt lat="49.02463" lon="1.78025">
        <ele>161</ele>
        <time>2023-01-10T15:07:11Z</time>
      </trkpt>
      <trkpt lat="49.02471" lon="1.78036">
        <ele>161</ele>
        <time>2023-01-10T15:07:26Z</time>
      </trkpt>
      <trkpt lat="49.0249" lon="1.78047">
        <ele>162</ele>
        <time>2023-01-10T15:07:53Z</time>
      </trkpt>
      <trkpt lat="49.02498" lon="1.78063">
        <ele>163</ele>
        <time>2023-01-10T15:08:10Z</time>
      </trkpt>
      <trkpt lat="49.02553" lon="1.78081">
        <ele>161</ele>
        <time>2023-01-10T15:09:25Z</time>
      </trkpt>
      <trkpt lat="49.02562" lon="1.78089">
        <ele>161</ele>
        <time>2023-01-10T15:09:39Z</time>
      </trkpt>
      <trkpt lat="49.0256" lon="1.78098">
        <ele>161</ele>
        <time>2023-01-10T15:09:48Z</time>
      </trkpt>
      <trkpt lat="49.02583" lon="1.78111">
        <ele>161</ele>
        <time>2023-01-10T15:10:20Z</time>
      </trkpt>
      <trkpt lat="49.02597" lon="1.78129">
        <ele>161</ele>
        <time>2023-01-10T15:10:45Z</time>
      </trkpt>
      <trkpt lat="49.02606" lon="1.78132">
        <ele>161</ele>
        <time>2023-01-10T15:10:57Z</time>
      </trkpt>
      <trkpt lat="49.02624" lon="1.78127">
        <ele>161</ele>
        <time>2023-01-10T15:11:21Z</time>
      </trkpt>
      <trkpt lat="49.02642" lon="1.7813">
        <ele>162</ele>
        <time>2023-01-10T15:11:46Z</time>
      </trkpt>
      <trkpt lat="49.02675" lon="1.78146">
        <ele>163</ele>
        <time>2023-01-10T15:12:32Z</time>
      </trkpt>
      <trkpt lat="49.02686" lon="1.78141">
        <ele>164</ele>
        <time>2023-01-10T15:12:47Z</time>
      </trkpt>
      <trkpt lat="49.02703" lon="1.78164">
        <ele>167</ele>
        <time>2023-01-10T15:13:17Z</time>
      </trkpt>
      <trkpt lat="49.02741" lon="1.7817">
        <ele>171</ele>
        <time>2023-01-10T15:14:08Z</time>
      </trkpt>
      <trkpt lat="49.02808" lon="1.782">
        <ele>170</ele>
        <time>2023-01-10T15:15:42Z</time>
      </trkpt>
      <trkpt lat="49.02825" lon="1.78201">
        <ele>170</ele>
        <time>2023-01-10T15:16:04Z</time>
      </trkpt>
      <trkpt lat="49.02833" lon="1.78212">
        <ele>170</ele>
        <time>2023-01-10T15:16:19Z</time>
      </trkpt>
      <trkpt lat="49.02851" lon="1.7821">
        <ele>169</ele>
        <time>2023-01-10T15:16:43Z</time>
      </trkpt>
      <trkpt lat="49.02859" lon="1.7822">
        <ele>170</ele>
        <time>2023-01-10T15:16:57Z</time>
      </trkpt>
      <trkpt lat="49.02888" lon="1.78223">
        <ele>170</ele>
        <time>2023-01-10T15:17:35Z</time>
      </trkpt>
      <trkpt lat="49.02921" lon="1.78237">
        <ele>171</ele>
        <time>2023-01-10T15:18:21Z</time>
      </trkpt>
      <trkpt lat="49.02954" lon="1.7826">
        <ele>171</ele>
        <time>2023-01-10T15:19:09Z</time>
      </trkpt>
      <trkpt lat="49.02976" lon="1.78287">
        <ele>170</ele>
        <time>2023-01-10T15:19:47Z</time>
      </trkpt>
      <trkpt lat="49.02978" lon="1.78296">
        <ele>171</ele>
        <time>2023-01-10T15:19:55Z</time>
      </trkpt>
      <trkpt lat="49.02992" lon="1.78304">
        <ele>170</ele>
        <time>2023-01-10T15:20:15Z</time>
      </trkpt>
      <trkpt lat="49.03007" lon="1.78339">
        <ele>171</ele>
        <time>2023-01-10T15:20:52Z</time>
      </trkpt>
      <trkpt lat="49.03014" lon="1.78384">
        <ele>172</ele>
        <time>2023-01-10T15:21:32Z</time>
      </trkpt>
      <trkpt lat="49.0304" lon="1.78419">
        <ele>173</ele>
        <time>2023-01-10T15:22:19Z</time>
      </trkpt>
      <trkpt lat="49.03043" lon="1.78466">
        <ele>174</ele>
        <time>2023-01-10T15:23:00Z</time>
      </trkpt>
      <trkpt lat="49.03067" lon="1.7848">
        <ele>174</ele>
        <time>2023-01-10T15:23:34Z</time>
      </trkpt>
      <trkpt lat="49.03078" lon="1.78501">
        <ele>174</ele>
        <time>2023-01-10T15:23:58Z</time>
      </trkpt>
      <trkpt lat="49.03104" lon="1.78526">
        <ele>173</ele>
        <time>2023-01-10T15:24:39Z</time>
      </trkpt>
      <trkpt lat="49.03114" lon="1.78552">
        <ele>173</ele>
        <time>2023-01-10T15:25:05Z</time>
      </trkpt>
      <trkpt lat="49.03128" lon="1.78572">
        <ele>173</ele>
        <time>2023-01-10T15:25:31Z</time>
      </trkpt>
      <trkpt lat="49.03151" lon="1.78648">
        <ele>171</ele>
        <time>2023-01-10T15:26:44Z</time>
      </trkpt>
      <trkpt lat="49.03158" lon="1.78658">
        <ele>170</ele>
        <time>2023-01-10T15:26:57Z</time>
      </trkpt>
      <trkpt lat="49.032" lon="1.78775">
        <ele>164</ele>
        <time>2023-01-10T15:28:54Z</time>
      </trkpt>
      <trkpt lat="49.03206" lon="1.78782">
        <ele>164</ele>
        <time>2023-01-10T15:29:04Z</time>
      </trkpt>
      <trkpt lat="49.0325" lon="1.78889">
        <ele>160</ele>
        <time>2023-01-10T15:30:54Z</time>
      </trkpt>
      <trkpt lat="49.03276" lon="1.78972">
        <ele>156</ele>
        <time>2023-01-10T15:32:15Z</time>
      </trkpt>
      <trkpt lat="49.03324" lon="1.79058">
        <ele>149</ele>
        <time>2023-01-10T15:33:53Z</time>
      </trkpt>
      <trkpt lat="49.03336" lon="1.79089">
        <ele>146</ele>
        <time>2023-01-10T15:34:25Z</time>
      </trkpt>
      <trkpt lat="49.03356" lon="1.7912">
        <ele>143</ele>
        <time>2023-01-10T15:35:03Z</time>
      </trkpt>
      <trkpt lat="49.03392" lon="1.79161">
        <ele>139</ele>
        <time>2023-01-10T15:36:03Z</time>
      </trkpt>
      <trkpt lat="49.03424" lon="1.79186">
        <ele>137</ele>
        <time>2023-01-10T15:36:51Z</time>
      </trkpt>
      <trkpt lat="49.03446" lon="1.79215">
        <ele>136</ele>
        <time>2023-01-10T15:37:30Z</time>
      </trkpt>
      <trkpt lat="49.03459" lon="1.79238">
        <ele>135</ele>
        <time>2023-01-10T15:37:56Z</time>
      </trkpt>
      <trkpt lat="49.03476" lon="1.79289">
        <ele>134</ele>
        <time>2023-01-10T15:38:46Z</time>
      </trkpt>
      <trkpt lat="49.03499" lon="1.7934">
        <ele>133</ele>
        <time>2023-01-10T15:39:41Z</time>
      </trkpt>
      <trkpt lat="49.03502" lon="1.79359">
        <ele>133</ele>
        <time>2023-01-10T15:39:58Z</time>
      </trkpt>
      <trkpt lat="49.03541" lon="1.79425">
        <ele>133</ele>
        <time>2023-01-10T15:41:15Z</time>
      </trkpt>
      <trkpt lat="49.03567" lon="1.79454">
        <ele>132</ele>
        <time>2023-01-10T15:41:58Z</time>
      </trkpt>
      <trkpt lat="49.03687" lon="1.7962">
        <ele>123</ele>
        <time>2023-01-10T15:45:35Z</time>
      </trkpt>
      <trkpt lat="49.0382" lon="1.79775">
        <ele>114</ele>
        <time>2023-01-10T15:49:18Z</time>
      </trkpt>
      <trkpt lat="49.0385" lon="1.79816">
        <ele>112</ele>
        <time>2023-01-10T15:50:12Z</time>
      </trkpt>
      <trkpt lat="49.03859" lon="1.7982">
        <ele>111</ele>
        <time>2023-01-10T15:50:24Z</time>
      </trkpt>
      <trkpt lat="49.0387" lon="1.79817">
        <ele>110</ele>
        <time>2023-01-10T15:50:39Z</time>
      </trkpt>
      <trkpt lat="49.03903" lon="1.7978">
        <ele>108</ele>
        <time>2023-01-10T15:51:34Z</time>
      </trkpt>
      <trkpt lat="49.03907" lon="1.79783">
        <ele>108</ele>
        <time>2023-01-10T15:51:40Z</time>
      </trkpt>
      <trkpt lat="49.03905" lon="1.79823">
        <ele>106</ele>
        <time>2023-01-10T15:52:15Z</time>
      </trkpt>
      <trkpt lat="49.03891" lon="1.79881">
        <ele>107</ele>
        <time>2023-01-10T15:53:09Z</time>
      </trkpt>
      <trkpt lat="49.03895" lon="1.79945">
        <ele>105</ele>
        <time>2023-01-10T15:54:05Z</time>
      </trkpt>
      <trkpt lat="49.03889" lon="1.79995">
        <ele>103</ele>
        <time>2023-01-10T15:54:50Z</time>
      </trkpt>
      <trkpt lat="49.03888" lon="1.80047">
        <ele>102</ele>
        <time>2023-01-10T15:55:35Z</time>
      </trkpt>
      <trkpt lat="49.03875" lon="1.80086">
        <ele>103</ele>
        <time>2023-01-10T15:56:13Z</time>
      </trkpt>
      <trkpt lat="49.03863" lon="1.80151">
        <ele>104</ele>
        <time>2023-01-10T15:57:12Z</time>
      </trkpt>
      <trkpt lat="49.03862" lon="1.80211">
        <ele>102</ele>
        <time>2023-01-10T15:58:05Z</time>
      </trkpt>
      <trkpt lat="49.03865" lon="1.80217">
        <ele>101</ele>
        <time>2023-01-10T15:58:11Z</time>
      </trkpt>
      <trkpt lat="49.03879" lon="1.80209">
        <ele>100</ele>
        <time>2023-01-10T15:58:31Z</time>
      </trkpt>
      <trkpt lat="49.03901" lon="1.80171">
        <ele>98</ele>
        <time>2023-01-10T15:59:16Z</time>
      </trkpt>
      <trkpt lat="49.0391" lon="1.80146">
        <ele>97</ele>
        <time>2023-01-10T15:59:41Z</time>
      </trkpt>
      <trkpt lat="49.03915" lon="1.80116">
        <ele>97</ele>
        <time>2023-01-10T16:00:08Z</time>
      </trkpt>
      <trkpt lat="49.03953" lon="1.80037">
        <ele>94</ele>
        <time>2023-01-10T16:01:34Z</time>
      </trkpt>
      <trkpt lat="49.03959" lon="1.80031">
        <ele>93</ele>
        <time>2023-01-10T16:01:43Z</time>
      </trkpt>
      <trkpt lat="49.03976" lon="1.80024">
        <ele>92</ele>
        <time>2023-01-10T16:02:07Z</time>
      </trkpt>
      <trkpt lat="49.03985" lon="1.80027">
        <ele>91</ele>
        <time>2023-01-10T16:02:19Z</time>
      </trkpt>
      <trkpt lat="49.04001" lon="1.80036">
        <ele>89</ele>
        <time>2023-01-10T16:02:42Z</time>
      </trkpt>
      <trkpt lat="49.04015" lon="1.80038">
        <ele>89</ele>
        <time>2023-01-10T16:03:00Z</time>
      </trkpt>
      <trkpt lat="49.04074" lon="1.80071">
        <ele>89</ele>
        <time>2023-01-10T16:04:24Z</time>
      </trkpt>
      <trkpt lat="49.0414" lon="1.80122">
        <ele>95</ele>
        <time>2023-01-10T16:06:03Z</time>
      </trkpt>
      <trkpt lat="49.04152" lon="1.80137">
        <ele>96</ele>
        <time>2023-01-10T16:06:24Z</time>
      </trkpt>
      <trkpt lat="49.04163" lon="1.80164">
        <ele>99</ele>
        <time>2023-01-10T16:06:52Z</time>
      </trkpt>
      <trkpt lat="49.04158" lon="1.80199">
        <ele>99</ele>
        <time>2023-01-10T16:07:23Z</time>
      </trkpt>
      <trkpt lat="49.04161" lon="1.80221">
        <ele>101</ele>
        <time>2023-01-10T16:07:43Z</time>
      </trkpt>
      <trkpt lat="49.0417" lon="1.80215">
        <ele>102</ele>
        <time>2023-01-10T16:07:56Z</time>
      </trkpt>
      <trkpt lat="49.04179" lon="1.80219">
        <ele>104</ele>
        <time>2023-01-10T16:08:08Z</time>
      </trkpt>
      <trkpt lat="49.04214" lon="1.80308">
        <ele>110</ele>
        <time>2023-01-10T16:09:39Z</time>
      </trkpt>
      <trkpt lat="49.04236" lon="1.80345">
        <ele>114</ele>
        <time>2023-01-10T16:10:23Z</time>
      </trkpt>
      <trkpt lat="49.04266" lon="1.80368">
        <ele>118</ele>
        <time>2023-01-10T16:11:07Z</time>
      </trkpt>
      <trkpt lat="49.04282" lon="1.8037">
        <ele>119</ele>
        <time>2023-01-10T16:11:29Z</time>
      </trkpt>
      <trkpt lat="49.04333" lon="1.80421">
        <ele>123</ele>
        <time>2023-01-10T16:12:50Z</time>
      </trkpt>
      <trkpt lat="49.04377" lon="1.80467">
        <ele>126</ele>
        <time>2023-01-10T16:14:01Z</time>
      </trkpt>
      <trkpt lat="49.04415" lon="1.80514">
        <ele>131</ele>
        <time>2023-01-10T16:15:07Z</time>
      </trkpt>
      <trkpt lat="49.0446" lon="1.80554">
        <ele>138</ele>
        <time>2023-01-10T16:16:16Z</time>
      </trkpt>
      <trkpt lat="49.04488" lon="1.80599">
        <ele>143</ele>
        <time>2023-01-10T16:17:10Z</time>
      </trkpt>
      <trkpt lat="49.04516" lon="1.80632">
        <ele>148</ele>
        <time>2023-01-10T16:17:58Z</time>
      </trkpt>
      <trkpt lat="49.04529" lon="1.80665">
        <ele>150</ele>
        <time>2023-01-10T16:18:31Z</time>
      </trkpt>
      <trkpt lat="49.04546" lon="1.80736">
        <ele>150</ele>
        <time>2023-01-10T16:19:37Z</time>
      </trkpt>
      <trkpt lat="49.04562" lon="1.80773">
        <ele>152</ele>
        <time>2023-01-10T16:20:16Z</time>
      </trkpt>
      <trkpt lat="49.04605" lon="1.80838">
        <ele>159</ele>
        <time>2023-01-10T16:21:37Z</time>
      </trkpt>
      <trkpt lat="49.0462" lon="1.80852">
        <ele>161</ele>
        <time>2023-01-10T16:22:00Z</time>
      </trkpt>
      <trkpt lat="49.04652" lon="1.80905">
        <ele>165</ele>
        <time>2023-01-10T16:23:04Z</time>
      </trkpt>
      <trkpt lat="49.04686" lon="1.80927">
        <ele>167</ele>
        <time>2023-01-10T16:23:53Z</time>
      </trkpt>
      <trkpt lat="49.04702" lon="1.80948">
        <ele>165</ele>
        <time>2023-01-10T16:24:21Z</time>
      </trkpt>
      <trkpt lat="49.04715" lon="1.80958">
        <ele>165</ele>
        <time>2023-01-10T16:24:40Z</time>
      </trkpt>
      <trkpt lat="49.04756" lon="1.80965">
        <ele>165</ele>
        <time>2023-01-10T16:25:35Z</time>
      </trkpt>
      <trkpt lat="49.0482" lon="1.8102">
        <ele>160</ele>
        <time>2023-01-10T16:27:13Z</time>
      </trkpt>
      <trkpt lat="49.0488" lon="1.81094">
        <ele>155</ele>
        <time>2023-01-10T16:28:56Z</time>
      </trkpt>
      <trkpt lat="49.049" lon="1.81128">
        <ele>154</ele>
        <time>2023-01-10T16:29:36Z</time>
      </trkpt>
      <trkpt lat="49.04906" lon="1.81129">
        <ele>154</ele>
        <time>2023-01-10T16:29:44Z</time>
      </trkpt>
      <trkpt lat="49.04907" lon="1.81134">
        <ele>153</ele>
        <time>2023-01-10T16:29:49Z</time>
      </trkpt>
      <trkpt lat="49.04914" lon="1.81129">
        <ele>153</ele>
        <time>2023-01-10T16:29:59Z</time>
      </trkpt>
      <trkpt lat="49.0492" lon="1.81131">
        <ele>153</ele>
        <time>2023-01-10T16:30:08Z</time>
      </trkpt>
      <trkpt lat="49.04928" lon="1.81152">
        <ele>150</ele>
        <time>2023-01-10T16:30:29Z</time>
      </trkpt>
      <trkpt lat="49.04947" lon="1.81154">
        <ele>146</ele>
        <time>2023-01-10T16:30:54Z</time>
      </trkpt>
      <trkpt lat="49.04988" lon="1.8114">
        <ele>138</ele>
        <time>2023-01-10T16:31:50Z</time>
      </trkpt>
      <trkpt lat="49.05022" lon="1.81117">
        <ele>134</ele>
        <time>2023-01-10T16:32:40Z</time>
      </trkpt>
      <trkpt lat="49.05049" lon="1.81117">
        <ele>129</ele>
        <time>2023-01-10T16:33:16Z</time>
      </trkpt>
      <trkpt lat="49.05075" lon="1.81107">
        <ele>126</ele>
        <time>2023-01-10T16:33:52Z</time>
      </trkpt>
      <trkpt lat="49.05093" lon="1.81097">
        <ele>124</ele>
        <time>2023-01-10T16:34:17Z</time>
      </trkpt>
      <trkpt lat="49.05134" lon="1.81064">
        <ele>125</ele>
        <time>2023-01-10T16:35:19Z</time>
      </trkpt>
      <trkpt lat="49.05147" lon="1.81061">
        <ele>125</ele>
        <time>2023-01-10T16:35:37Z</time>
      </trkpt>
      <trkpt lat="49.05168" lon="1.81069">
        <ele>124</ele>
        <time>2023-01-10T16:36:06Z</time>
      </trkpt>
      <trkpt lat="49.05181" lon="1.81059">
        <ele>126</ele>
        <time>2023-01-10T16:36:25Z</time>
      </trkpt>
      <trkpt lat="49.05199" lon="1.81094">
        <ele>126</ele>
        <time>2023-01-10T16:37:04Z</time>
      </trkpt>
      <trkpt lat="49.05243" lon="1.8113">
        <ele>129</ele>
        <time>2023-01-10T16:38:10Z</time>
      </trkpt>
      <trkpt lat="49.0526" lon="1.81159">
        <ele>128</ele>
        <time>2023-01-10T16:38:45Z</time>
      </trkpt>
      <trkpt lat="49.05279" lon="1.81175">
        <ele>127</ele>
        <time>2023-01-10T16:39:13Z</time>
      </trkpt>
      <trkpt lat="49.05295" lon="1.81197">
        <ele>126</ele>
        <time>2023-01-10T16:39:42Z</time>
      </trkpt>
      <trkpt lat="49.05304" lon="1.81202">
        <ele>126</ele>
        <time>2023-01-10T16:39:55Z</time>
      </trkpt>
      <trkpt lat="49.0531" lon="1.81218">
        <ele>126</ele>
        <time>2023-01-10T16:40:11Z</time>
      </trkpt>
      <trkpt lat="49.05314" lon="1.81266">
        <ele>124</ele>
        <time>2023-01-10T16:40:53Z</time>
      </trkpt>
      <trkpt lat="49.0531" lon="1.81289">
        <ele>123</ele>
        <time>2023-01-10T16:41:14Z</time>
      </trkpt>
      <trkpt lat="49.05313" lon="1.81408">
        <ele>116</ele>
        <time>2023-01-10T16:42:58Z</time>
      </trkpt>
      <trkpt lat="49.05293" lon="1.8151">
        <ele>107</ele>
        <time>2023-01-10T16:44:32Z</time>
      </trkpt>
      <trkpt lat="49.05292" lon="1.81546">
        <ele>107</ele>
        <time>2023-01-10T16:45:03Z</time>
      </trkpt>
      <trkpt lat="49.05319" lon="1.81552">
        <ele>108</ele>
        <time>2023-01-10T16:45:39Z</time>
      </trkpt>
      <trkpt lat="49.05338" lon="1.81551">
        <ele>109</ele>
        <time>2023-01-10T16:46:05Z</time>
      </trkpt>
      <trkpt lat="49.05367" lon="1.8154">
        <ele>110</ele>
        <time>2023-01-10T16:46:45Z</time>
      </trkpt>
      <trkpt lat="49.05381" lon="1.81541">
        <ele>110</ele>
        <time>2023-01-10T16:47:03Z</time>
      </trkpt>
      <trkpt lat="49.0541" lon="1.81535">
        <ele>111</ele>
        <time>2023-01-10T16:47:42Z</time>
      </trkpt>
      <trkpt lat="49.05451" lon="1.81519">
        <ele>112</ele>
        <time>2023-01-10T16:48:39Z</time>
      </trkpt>
      <trkpt lat="49.05488" lon="1.81526">
        <ele>114</ele>
        <time>2023-01-10T16:49:29Z</time>
      </trkpt>
      <trkpt lat="49.05511" lon="1.81536">
        <ele>116</ele>
        <time>2023-01-10T16:50:01Z</time>
      </trkpt>
      <trkpt lat="49.05534" lon="1.81522">
        <ele>116</ele>
        <time>2023-01-10T16:50:34Z</time>
      </trkpt>
      <trkpt lat="49.05596" lon="1.81504">
        <ele>120</ele>
        <time>2023-01-10T16:51:58Z</time>
      </trkpt>
      <trkpt lat="49.05638" lon="1.81476">
        <ele>121</ele>
        <time>2023-01-10T16:52:59Z</time>
      </trkpt>
      <trkpt lat="49.05678" lon="1.8146">
        <ele>124</ele>
        <time>2023-01-10T16:53:54Z</time>
      </trkpt>
      <trkpt lat="49.05721" lon="1.81459">
        <ele>126</ele>
        <time>2023-01-10T16:54:52Z</time>
      </trkpt>
      <trkpt lat="49.05782" lon="1.81444">
        <ele>130</ele>
        <time>2023-01-10T16:56:14Z</time>
      </trkpt>
      <trkpt lat="49.05795" lon="1.81456">
        <ele>131</ele>
        <time>2023-01-10T16:56:34Z</time>
      </trkpt>
      <trkpt lat="49.05812" lon="1.81454">
        <ele>132</ele>
        <time>2023-01-10T16:56:57Z</time>
      </trkpt>
      <trkpt lat="49.05842" lon="1.81442">
        <ele>134</ele>
        <time>2023-01-10T16:57:38Z</time>
      </trkpt>
      <trkpt lat="49.05871" lon="1.8144">
        <ele>137</ele>
        <time>2023-01-10T16:58:17Z</time>
      </trkpt>
      <trkpt lat="49.05894" lon="1.81427">
        <ele>139</ele>
        <time>2023-01-10T16:58:50Z</time>
      </trkpt>
      <trkpt lat="49.05998" lon="1.81397">
        <ele>143</ele>
        <time>2023-01-10T17:01:11Z</time>
      </trkpt>
      <trkpt lat="49.0606" lon="1.81424">
        <ele>148</ele>
        <time>2023-01-10T17:02:37Z</time>
      </trkpt>
      <trkpt lat="49.0607" lon="1.81435">
        <ele>149</ele>
        <time>2023-01-10T17:02:54Z</time>
      </trkpt>
      <trkpt lat="49.06096" lon="1.81452">
        <ele>152</ele>
        <time>2023-01-10T17:03:31Z</time>
      </trkpt>
      <trkpt lat="49.06117" lon="1.81448">
        <ele>152</ele>
        <time>2023-01-10T17:04:00Z</time>
      </trkpt>
      <trkpt lat="49.06176" lon="1.81475">
        <ele>156</ele>
        <time>2023-01-10T17:05:22Z</time>
      </trkpt>
      <trkpt lat="49.06183" lon="1.815">
        <ele>156</ele>
        <time>2023-01-10T17:05:46Z</time>
      </trkpt>
    </trkseg>
  </trk>
</gpx>